Wetterdaten: Samstag, 18.05.2013
Datum Zeit Temp. Aussen +5cm Feuchte Auss Luftdruck Regen Sonnenschein Regendauer UV Solar Windben
18.05.2013 00:00 9,3 C 8,4 C 97 % 1005,5 hPa 0,0 l/m 0 min 0 min 0,0 UV-I 0 W/m 0,0 km/h (0 Bft)
18.05.2013 00:02 9,3 C 8,4 C 97 % 1005,4 hPa 0,0 l/m 0 min 0 min 0,0 UV-I 0 W/m 0,0 km/h (0 Bft)
18.05.2013 00:06 9,3 C 8,4 C 97 % 1005,2 hPa 0,0 l/m 0 min 0 min 0,0 UV-I 0 W/m 7,7 km/h (2 Bft)
18.05.2013 00:08 9,3 C 8,4 C 97 % 1005,1 hPa 0,0 l/m 0 min 0 min 0,0 UV-I 0 W/m 0,0 km/h (0 Bft)
18.05.2013 00:10 9,3 C 8,4 C 97 % 1005,2 hPa 0,0 l/m 0 min 0 min 0,0 UV-I 0 W/m 10,3 km/h (2 Bft)
18.05.2013 00:12 9,3 C 8,4 C 97 % 1005,4 hPa 0,0 l/m 0 min 0 min 0,0 UV-I 0 W/m 7,7 km/h (2 Bft)
18.05.2013 00:14 9,3 C 8,4 C 97 % 1005,4 hPa 0,0 l/m 0 min 0 min 0,0 UV-I 0 W/m 0,0 km/h (0 Bft)
18.05.2013 00:16 9,3 C 8,4 C 97 % 1005,4 hPa 0,0 l/m 0 min 0 min 0,0 UV-I 0 W/m 0,0 km/h (0 Bft)
18.05.2013 00:18 9,3 C 8,4 C 97 % 1005,3 hPa 0,0 l/m 0 min 0 min 0,0 UV-I 0 W/m 5,1 km/h (1 Bft)
18.05.2013 00:20 9,2 C 8,4 C 97 % 1005,5 hPa 0,0 l/m 0 min 0 min 0,0 UV-I 0 W/m 7,7 km/h (2 Bft)
18.05.2013 00:22 9,2 C 8,4 C 97 % 1005,4 hPa 0,0 l/m 0 min 0 min 0,0 UV-I 0 W/m 7,7 km/h (2 Bft)
18.05.2013 00:24 9,2 C 8,4 C 97 % 1005,4 hPa 0,0 l/m 0 min 0 min 0,0 UV-I 0 W/m 7,7 km/h (2 Bft)
18.05.2013 00:26 9,2 C 8,4 C 97 % 1005,5 hPa 0,0 l/m 0 min 0 min 0,0 UV-I 0 W/m 2,6 km/h (1 Bft)
18.05.2013 00:28 9,2 C 8,4 C 97 % 1005,5 hPa 0,0 l/m 0 min 0 min 0,0 UV-I 0 W/m 2,6 km/h (1 Bft)
18.05.2013 00:30 9,2 C 8,4 C 97 % 1005,5 hPa 0,0 l/m 0 min 0 min 0,0 UV-I 0 W/m 7,7 km/h (2 Bft)
18.05.2013 00:32 9,2 C 8,4 C 97 % 1005,4 hPa 0,0 l/m 0 min 0 min 0,0 UV-I 0 W/m 0,0 km/h (0 Bft)
18.05.2013 00:34 9,2 C 8,4 C 97 % 1005,5 hPa 0,0 l/m 0 min 0 min 0,0 UV-I 0 W/m 0,0 km/h (0 Bft)
18.05.2013 00:36 9,2 C 8,4 C 97 % 1005,5 hPa 0,0 l/m 0 min 0 min 0,0 UV-I 0 W/m 2,6 km/h (1 Bft)
18.05.2013 00:38 9,2 C 7,9 C 97 % 1005,5 hPa 0,0 l/m 0 min 0 min 0,0 UV-I 0 W/m 7,7 km/h (2 Bft)
18.05.2013 00:40 9,2 C 8,4 C 97 % 1005,4 hPa 0,0 l/m 0 min 0 min 0,0 UV-I 0 W/m 5,1 km/h (1 Bft)
18.05.2013 00:42 9,2 C 7,9 C 97 % 1005,5 hPa 0,0 l/m 0 min 0 min 0,0 UV-I 0 W/m 5,1 km/h (1 Bft)
18.05.2013 00:44 9,2 C 7,9 C 97 % 1005,5 hPa 0,0 l/m 0 min 0 min 0,0 UV-I 0 W/m 0,0 km/h (0 Bft)
18.05.2013 00:46 9,2 C 7,9 C 97 % 1005,5 hPa 0,0 l/m 0 min 0 min 0,0 UV-I 0 W/m 0,0 km/h (0 Bft)
18.05.2013 00:48 9,1 C 7,9 C 97 % 1005,4 hPa 0,0 l/m 0 min 0 min 0,0 UV-I 0 W/m 5,1 km/h (1 Bft)
18.05.2013 00:50 9,1 C 7,9 C 97 % 1005,5 hPa 0,0 l/m 0 min 0 min 0,0 UV-I 0 W/m 0,0 km/h (0 Bft)
18.05.2013 00:52 9,1 C 7,9 C 97 % 1005,5 hPa 0,0 l/m 0 min 0 min 0,0 UV-I 0 W/m 7,7 km/h (2 Bft)
18.05.2013 00:54 9,1 C 7,9 C 97 % 1005,5 hPa 0,0 l/m 0 min 0 min 0,0 UV-I 0 W/m 7,7 km/h (2 Bft)
18.05.2013 00:56 9,1 C 7,9 C 97 % 1005,5 hPa 0,0 l/m 0 min 0 min 0,0 UV-I 0 W/m 5,1 km/h (1 Bft)
18.05.2013 00:58 9,1 C 7,9 C 97 % 1005,5 hPa 0,0 l/m 0 min 0 min 0,0 UV-I 0 W/m 0,0 km/h (0 Bft)
18.05.2013 01:00 9,1 C 7,9 C 97 % 1005,5 hPa 0,0 l/m 0 min 0 min 0,0 UV-I 0 W/m 0,0 km/h (0 Bft)
18.05.2013 01:02 9,1 C 7,9 C 97 % 1005,7 hPa 0,0 l/m 0 min 0 min 0,0 UV-I 0 W/m 0,0 km/h (0 Bft)
18.05.2013 01:04 9,1 C 7,9 C 97 % 1005,7 hPa 0,0 l/m 0 min 0 min 0,0 UV-I 0 W/m 0,0 km/h (0 Bft)
18.05.2013 01:06 9,1 C 7,9 C 97 % 1005,8 hPa 0,0 l/m 0 min 0 min 0,0 UV-I 0 W/m 0,0 km/h (0 Bft)
18.05.2013 01:08 9,1 C 7,9 C 97 % 1005,7 hPa 0,0 l/m 0 min 0 min 0,0 UV-I 0 W/m 0,0 km/h (0 Bft)
18.05.2013 01:10 9,1 C 7,9 C 97 % 1005,7 hPa 0,0 l/m 0 min 0 min 0,0 UV-I 0 W/m 5,1 km/h (1 Bft)
18.05.2013 01:12 9,1 C 7,9 C 97 % 1005,8 hPa 0,0 l/m 0 min 0 min 0,0 UV-I 0 W/m 0,0 km/h (0 Bft)
18.05.2013 01:14 9,0 C 7,9 C 97 % 1005,7 hPa 0,0 l/m 0 min 0 min 0,0 UV-I 0 W/m 0,0 km/h (0 Bft)
18.05.2013 01:16 9,0 C 7,9 C 97 % 1005,7 hPa 0,0 l/m 0 min 0 min 0,0 UV-I 0 W/m 7,7 km/h (2 Bft)
18.05.2013 01:18 9,0 C 7,9 C 97 % 1005,6 hPa 0,0 l/m 0 min 0 min 0,0 UV-I 0 W/m 2,6 km/h (1 Bft)
18.05.2013 01:20 9,0 C 7,9 C 97 % 1005,6 hPa 0,0 l/m 0 min 0 min 0,0 UV-I 0 W/m 0,0 km/h (0 Bft)
18.05.2013 01:22 9,0 C 7,9 C 97 % 1005,5 hPa 0,0 l/m 0 min 0 min 0,0 UV-I 0 W/m 5,1 km/h (1 Bft)
18.05.2013 01:24 8,9 C 7,9 C 97 % 1005,4 hPa 0,0 l/m 0 min 0 min 0,0 UV-I 0 W/m 5,1 km/h (1 Bft)
18.05.2013 01:26 8,9 C 7,9 C 97 % 1005,4 hPa 0,0 l/m 0 min 0 min 0,0 UV-I 0 W/m 10,3 km/h (2 Bft)
18.05.2013 01:28 8,9 C 7,9 C 97 % 1005,4 hPa 0,0 l/m 0 min 0 min 0,0 UV-I 0 W/m 2,6 km/h (1 Bft)
18.05.2013 01:30 8,9 C 7,9 C 97 % 1005,4 hPa 0,0 l/m 0 min 0 min 0,0 UV-I 0 W/m 0,0 km/h (0 Bft)
18.05.2013 01:32 8,9 C 7,9 C 97 % 1005,4 hPa 0,0 l/m 0 min 0 min 0,0 UV-I 0 W/m 0,0 km/h (0 Bft)
18.05.2013 01:34 8,9 C 7,9 C 97 % 1005,4 hPa 0,0 l/m 0 min 0 min 0,0 UV-I 0 W/m 0,0 km/h (0 Bft)
18.05.2013 01:36 8,9 C 7,9 C 97 % 1005,4 hPa 0,0 l/m 0 min 0 min 0,0 UV-I 0 W/m 5,1 km/h (1 Bft)
18.05.2013 01:38 8,9 C 7,9 C 97 % 1005,4 hPa 0,0 l/m 0 min 0 min 0,0 UV-I 0 W/m 0,0 km/h (0 Bft)
18.05.2013 01:40 8,9 C 7,9 C 97 % 1005,4 hPa 0,0 l/m 0 min 0 min 0,0 UV-I 0 W/m 2,6 km/h (1 Bft)
18.05.2013 01:42 8,9 C 7,9 C 97 % 1005,5 hPa 0,0 l/m 0 min 0 min 0,0 UV-I 0 W/m 0,0 km/h (0 Bft)
18.05.2013 01:44 8,9 C 7,9 C 97 % 1005,5 hPa 0,0 l/m 0 min 0 min 0,0 UV-I 0 W/m 0,0 km/h (0 Bft)
18.05.2013 01:46 8,9 C 7,9 C 97 % 1005,5 hPa 0,0 l/m 0 min 0 min 0,0 UV-I 0 W/m 5,1 km/h (1 Bft)
18.05.2013 01:48 8,9 C 7,9 C 97 % 1005,5 hPa 0,0 l/m 0 min 0 min 0,0 UV-I 0 W/m 0,0 km/h (0 Bft)
18.05.2013 01:50 8,9 C 7,9 C 97 % 1005,5 hPa 0,0 l/m 0 min 0 min 0,0 UV-I 0 W/m 0,0 km/h (0 Bft)
18.05.2013 01:52 8,9 C 7,9 C 97 % 1005,5 hPa 0,0 l/m 0 min 0 min 0,0 UV-I 0 W/m 0,0 km/h (0 Bft)
18.05.2013 01:54 8,9 C 7,9 C 97 % 1005,6 hPa 0,0 l/m 0 min 0 min 0,0 UV-I 0 W/m 5,1 km/h (1 Bft)
18.05.2013 01:56 8,9 C 7,9 C 97 % 1005,5 hPa 0,0 l/m 0 min 0 min 0,0 UV-I 0 W/m 0,0 km/h (0 Bft)
18.05.2013 01:58 8,9 C 7,9 C 97 % 1005,6 hPa 0,0 l/m 0 min 0 min 0,0 UV-I 0 W/m 5,1 km/h (1 Bft)
18.05.2013 02:00 8,8 C 7,9 C 97 % 1005,6 hPa 0,0 l/m 0 min 0 min 0,0 UV-I 0 W/m 7,7 km/h (2 Bft)
18.05.2013 02:02 8,8 C 7,9 C 97 % 1005,7 hPa 0,0 l/m 0 min 0 min 0,0 UV-I 0 W/m 0,0 km/h (0 Bft)
18.05.2013 02:04 8,8 C 7,9 C 97 % 1005,7 hPa 0,0 l/m 0 min 0 min 0,0 UV-I 0 W/m 0,0 km/h (0 Bft)
18.05.2013 02:06 8,8 C 7,9 C 97 % 1005,7 hPa 0,0 l/m 0 min 0 min 0,0 UV-I 0 W/m 0,0 km/h (0 Bft)
18.05.2013 02:08 8,8 C 7,9 C 97 % 1005,6 hPa 0,0 l/m 0 min 0 min 0,0 UV-I 0 W/m 0,0 km/h (0 Bft)
18.05.2013 02:10 8,8 C 7,9 C 97 % 1005,7 hPa 0,0 l/m 0 min 0 min 0,0 UV-I 0 W/m 2,6 km/h (1 Bft)
18.05.2013 02:12 8,8 C 7,9 C 97 % 1005,7 hPa 0,0 l/m 0 min 0 min 0,0 UV-I 0 W/m 0,0 km/h (0 Bft)
18.05.2013 02:14 8,8 C 7,9 C 97 % 1005,8 hPa 0,0 l/m 0 min 0 min 0,0 UV-I 0 W/m 7,7 km/h (2 Bft)
18.05.2013 02:16 8,8 C 7,9 C 97 % 1005,8 hPa 0,0 l/m 0 min 0 min 0,0 UV-I 0 W/m 0,0 km/h (0 Bft)
18.05.2013 02:18 8,8 C 7,9 C 97 % 1005,8 hPa 0,0 l/m 0 min 0 min 0,0 UV-I 0 W/m 7,7 km/h (2 Bft)
18.05.2013 02:20 8,8 C 7,9 C 97 % 1005,8 hPa 0,0 l/m 0 min 0 min 0,0 UV-I 0 W/m 7,7 km/h (2 Bft)
18.05.2013 02:22 8,8 C 7,3 C 97 % 1005,7 hPa 0,0 l/m 0 min 0 min 0,0 UV-I 0 W/m 12,9 km/h (3 Bft)
18.05.2013 02:24 8,7 C 7,3 C 97 % 1005,7 hPa 0,0 l/m 0 min 0 min 0,0 UV-I 0 W/m 2,6 km/h (1 Bft)
18.05.2013 02:26 8,7 C 7,3 C 96 % 1005,7 hPa 0,0 l/m 0 min 0 min 0,0 UV-I 0 W/m 0,0 km/h (0 Bft)
18.05.2013 02:28 8,7 C 7,3 C 97 % 1005,7 hPa 0,0 l/m 0 min 0 min 0,0 UV-I 0 W/m 0,0 km/h (0 Bft)
18.05.2013 02:30 8,7 C 7,3 C 97 % 1005,7 hPa 0,0 l/m 0 min 0 min 0,0 UV-I 0 W/m 7,7 km/h (2 Bft)
18.05.2013 02:32 8,7 C 7,3 C 96 % 1005,7 hPa 0,0 l/m 0 min 0 min 0,0 UV-I 0 W/m 0,0 km/h (0 Bft)
18.05.2013 02:34 8,7 C 7,3 C 96 % 1005,7 hPa 0,0 l/m 0 min 0 min 0,0 UV-I 0 W/m 0,0 km/h (0 Bft)
18.05.2013 02:36 8,7 C 7,3 C 96 % 1005,7 hPa 0,0 l/m 0 min 0 min 0,0 UV-I 0 W/m 0,0 km/h (0 Bft)
18.05.2013 02:38 8,7 C 7,3 C 96 % 1005,7 hPa 0,0 l/m 0 min 0 min 0,0 UV-I 0 W/m 0,0 km/h (0 Bft)
18.05.2013 02:40 8,7 C 7,3 C 96 % 1005,7 hPa 0,0 l/m 0 min 0 min 0,0 UV-I 0 W/m 2,6 km/h (1 Bft)
18.05.2013 02:42 8,7 C 7,3 C 96 % 1005,8 hPa 0,0 l/m 0 min 0 min 0,0 UV-I 0 W/m 0,0 km/h (0 Bft)
18.05.2013 02:44 8,7 C 7,3 C 96 % 1005,7 hPa 0,0 l/m 0 min 0 min 0,0 UV-I 0 W/m 0,0 km/h (0 Bft)
18.05.2013 02:46 8,7 C 7,3 C 96 % 1005,7 hPa 0,0 l/m 0 min 0 min 0,0 UV-I 0 W/m 7,7 km/h (2 Bft)
18.05.2013 02:48 8,7 C 7,3 C 96 % 1005,8 hPa 0,0 l/m 0 min 0 min 0,0 UV-I 0 W/m 0,0 km/h (0 Bft)
18.05.2013 02:50 8,7 C 7,3 C 96 % 1005,9 hPa 0,0 l/m 0 min 0 min 0,0 UV-I 0 W/m 5,1 km/h (1 Bft)
18.05.2013 02:52 8,7 C 7,3 C 96 % 1005,9 hPa 0,0 l/m 0 min 0 min 0,0 UV-I 0 W/m 0,0 km/h (0 Bft)
18.05.2013 02:54 8,7 C 7,3 C 96 % 1005,9 hPa 0,0 l/m 0 min 0 min 0,0 UV-I 0 W/m 0,0 km/h (0 Bft)
18.05.2013 02:56 8,6 C 7,9 C 96 % 1005,9 hPa 0,0 l/m 0 min 0 min 0,0 UV-I 0 W/m 0,0 km/h (0 Bft)
18.05.2013 02:58 8,7 C 7,3 C 96 % 1005,9 hPa 0,0 l/m 0 min 0 min 0,0 UV-I 0 W/m 2,6 km/h (1 Bft)
18.05.2013 03:00 8,7 C 7,3 C 96 % 1005,9 hPa 0,0 l/m 0 min 0 min 0,0 UV-I 0 W/m 0,0 km/h (0 Bft)
18.05.2013 03:02 8,7 C 7,3 C 96 % 1005,9 hPa 0,0 l/m 0 min 0 min 0,0 UV-I 0 W/m 7,7 km/h (2 Bft)
18.05.2013 03:06 8,7 C 7,3 C 96 % 1006,0 hPa 0,0 l/m 0 min 0 min 0,0 UV-I 0 W/m 2,6 km/h (1 Bft)
18.05.2013 03:08 8,7 C 7,3 C 96 % 1006,0 hPa 0,0 l/m 0 min 0 min 0,0 UV-I 0 W/m 2,6 km/h (1 Bft)
18.05.2013 03:10 8,7 C 7,3 C 96 % 1006,1 hPa 0,0 l/m 0 min 0 min 0,0 UV-I 0 W/m 0,0 km/h (0 Bft)
18.05.2013 03:12 8,7 C 7,3 C 96 % 1006,1 hPa 0,0 l/m 0 min 0 min 0,0 UV-I 0 W/m 0,0 km/h (0 Bft)
18.05.2013 03:14 8,7 C 7,3 C 96 % 1006,2 hPa 0,0 l/m 0 min 0 min 0,0 UV-I 0 W/m 0,0 km/h (0 Bft)
18.05.2013 03:16 8,7 C 7,3 C 96 % 1006,2 hPa 0,0 l/m 0 min 0 min 0,0 UV-I 0 W/m 0,0 km/h (0 Bft)
18.05.2013 03:18 8,7 C 7,3 C 96 % 1006,1 hPa 0,0 l/m 0 min 0 min 0,0 UV-I 0 W/m 0,0 km/h (0 Bft)
18.05.2013 03:20 8,6 C 7,3 C 96 % 1006,1 hPa 0,0 l/m 0 min 0 min 0,0 UV-I 0 W/m 0,0 km/h (0 Bft)
18.05.2013 03:22 8,6 C 7,3 C 96 % 1006,1 hPa 0,0 l/m 0 min 0 min 0,0 UV-I 0 W/m 2,6 km/h (1 Bft)
18.05.2013 03:24 8,6 C 7,3 C 96 % 1006,1 hPa 0,0 l/m 0 min 0 min 0,0 UV-I 0 W/m 0,0 km/h (0 Bft)
18.05.2013 03:26 8,6 C 7,3 C 96 % 1006,0 hPa 0,0 l/m 0 min 0 min 0,0 UV-I 0 W/m 0,0 km/h (0 Bft)
18.05.2013 03:28 8,6 C 7,3 C 96 % 1005,9 hPa 0,0 l/m 0 min 0 min 0,0 UV-I 0 W/m 10,3 km/h (2 Bft)
18.05.2013 03:30 8,6 C 7,3 C 96 % 1005,9 hPa 0,0 l/m 0 min 0 min 0,0 UV-I 0 W/m 0,0 km/h (0 Bft)
18.05.2013 03:32 8,6 C 7,3 C 96 % 1006,0 hPa 0,0 l/m 0 min 0 min 0,0 UV-I 0 W/m 0,0 km/h (0 Bft)
18.05.2013 03:34 8,6 C 7,3 C 96 % 1006,0 hPa 0,0 l/m 0 min 0 min 0,0 UV-I 0 W/m 0,0 km/h (0 Bft)
18.05.2013 03:36 8,6 C 7,3 C 96 % 1005,9 hPa 0,0 l/m 0 min 0 min 0,0 UV-I 0 W/m 12,9 km/h (3 Bft)
18.05.2013 03:38 8,6 C 7,3 C 96 % 1005,9 hPa 0,0 l/m 0 min 0 min 0,0 UV-I 0 W/m 7,7 km/h (2 Bft)
18.05.2013 03:40 8,6 C 7,3 C 96 % 1005,9 hPa 0,0 l/m 0 min 0 min 0,0 UV-I 0 W/m 7,7 km/h (2 Bft)
18.05.2013 03:42 8,6 C 7,3 C 96 % 1005,9 hPa 0,0 l/m 0 min 0 min 0,0 UV-I 0 W/m 2,6 km/h (1 Bft)
18.05.2013 03:44 8,6 C 7,3 C 96 % 1005,8 hPa 0,0 l/m 0 min 0 min 0,0 UV-I 0 W/m 10,3 km/h (2 Bft)
18.05.2013 03:46 8,6 C 7,3 C 96 % 1005,9 hPa 0,0 l/m 0 min 0 min 0,0 UV-I 0 W/m 7,7 km/h (2 Bft)
18.05.2013 03:48 8,6 C 7,3 C 96 % 1005,8 hPa 0,0 l/m 0 min 0 min 0,0 UV-I 0 W/m 0,0 km/h (0 Bft)
18.05.2013 03:50 8,6 C 7,3 C 96 % 1005,9 hPa 0,0 l/m 0 min 0 min 0,0 UV-I 0 W/m 7,7 km/h (2 Bft)
18.05.2013 03:52 8,6 C 7,3 C 96 % 1005,9 hPa 0,0 l/m 0 min 0 min 0,0 UV-I 0 W/m 0,0 km/h (0 Bft)
18.05.2013 03:54 8,6 C 7,3 C 96 % 1005,8 hPa 0,0 l/m 0 min 0 min 0,0 UV-I 0 W/m 0,0 km/h (0 Bft)
18.05.2013 03:56 8,6 C 7,3 C 96 % 1005,9 hPa 0,0 l/m 0 min 0 min 0,0 UV-I 0 W/m 0,0 km/h (0 Bft)
18.05.2013 03:58 8,6 C 7,3 C 96 % 1005,9 hPa 0,0 l/m 0 min 0 min 0,0 UV-I 0 W/m 0,0 km/h (0 Bft)
18.05.2013 04:00 8,6 C 7,3 C 96 % 1005,9 hPa 0,0 l/m 0 min 0 min 0,0 UV-I 0 W/m 0,0 km/h (0 Bft)
18.05.2013 04:02 8,6 C 7,3 C 96 % 1005,9 hPa 0,0 l/m 0 min 0 min 0,0 UV-I 0 W/m 0,0 km/h (0 Bft)
18.05.2013 04:04 8,5 C 7,3 C 96 % 1005,9 hPa 0,0 l/m 0 min 0 min 0,0 UV-I 0 W/m 0,0 km/h (0 Bft)
18.05.2013 04:06 8,5 C 7,3 C 96 % 1005,8 hPa 0,0 l/m 0 min 0 min 0,0 UV-I 0 W/m 0,0 km/h (0 Bft)
18.05.2013 04:08 8,5 C 7,3 C 96 % 1005,8 hPa 0,0 l/m 0 min 0 min 0,0 UV-I 0 W/m 5,1 km/h (1 Bft)
18.05.2013 04:10 8,5 C 7,3 C 96 % 1005,8 hPa 0,0 l/m 0 min 0 min 0,0 UV-I 0 W/m 2,6 km/h (1 Bft)
18.05.2013 04:12 8,5 C 7,3 C 96 % 1005,8 hPa 0,0 l/m 0 min 0 min 0,0 UV-I 0 W/m 7,7 km/h (2 Bft)
18.05.2013 04:14 8,5 C 7,3 C 96 % 1005,8 hPa 0,0 l/m 0 min 0 min 0,0 UV-I 0 W/m 2,6 km/h (1 Bft)
18.05.2013 04:16 8,5 C 7,3 C 96 % 1005,9 hPa 0,0 l/m 0 min 0 min 0,0 UV-I 0 W/m 5,1 km/h (1 Bft)
18.05.2013 04:18 8,4 C 7,3 C 96 % 1005,9 hPa 0,0 l/m 0 min 0 min 0,0 UV-I 0 W/m 2,6 km/h (1 Bft)
18.05.2013 04:20 8,4 C 7,3 C 96 % 1005,8 hPa 0,0 l/m 0 min 0 min 0,0 UV-I 0 W/m 5,1 km/h (1 Bft)
18.05.2013 04:22 8,4 C 7,3 C 96 % 1005,9 hPa 0,0 l/m 0 min 0 min 0,0 UV-I 0 W/m 10,3 km/h (2 Bft)
18.05.2013 04:24 8,4 C 7,3 C 96 % 1005,9 hPa 0,0 l/m 0 min 0 min 0,0 UV-I 0 W/m 0,0 km/h (0 Bft)
18.05.2013 04:26 8,4 C 7,3 C 96 % 1005,9 hPa 0,0 l/m 0 min 0 min 0,0 UV-I 0 W/m 0,0 km/h (0 Bft)
18.05.2013 04:28 8,4 C 7,3 C 96 % 1005,9 hPa 0,0 l/m 0 min 0 min 0,0 UV-I 0 W/m 7,7 km/h (2 Bft)
18.05.2013 04:30 8,4 C 7,3 C 96 % 1006,0 hPa 0,0 l/m 0 min 0 min 0,0 UV-I 0 W/m 0,0 km/h (0 Bft)
18.05.2013 04:32 8,4 C 7,3 C 96 % 1006,0 hPa 0,0 l/m 0 min 0 min 0,0 UV-I 0 W/m 0,0 km/h (0 Bft)
18.05.2013 04:34 8,4 C 7,3 C 96 % 1006,0 hPa 0,0 l/m 0 min 0 min 0,0 UV-I 0 W/m 5,1 km/h (1 Bft)
18.05.2013 04:36 8,4 C 7,3 C 96 % 1006,0 hPa 0,0 l/m 0 min 0 min 0,0 UV-I 0 W/m 0,0 km/h (0 Bft)
18.05.2013 04:38 8,4 C 7,3 C 96 % 1006,0 hPa 0,0 l/m 0 min 0 min 0,0 UV-I 0 W/m 2,6 km/h (1 Bft)
18.05.2013 04:40 8,4 C 7,3 C 96 % 1005,9 hPa 0,0 l/m 0 min 0 min 0,0 UV-I 0 W/m 7,7 km/h (2 Bft)
18.05.2013 04:42 8,4 C 7,3 C 96 % 1005,9 hPa 0,0 l/m 0 min 0 min 0,0 UV-I 0 W/m 10,3 km/h (2 Bft)
18.05.2013 04:44 8,4 C 7,3 C 96 % 1006,0 hPa 0,0 l/m 0 min 0 min 0,0 UV-I 0 W/m 0,0 km/h (0 Bft)
18.05.2013 04:46 8,4 C 7,3 C 96 % 1006,0 hPa 0,0 l/m 0 min 0 min 0,0 UV-I 0 W/m 0,0 km/h (0 Bft)
18.05.2013 04:48 8,4 C 7,3 C 96 % 1006,1 hPa 0,0 l/m 0 min 0 min 0,0 UV-I 0 W/m 10,3 km/h (2 Bft)
18.05.2013 04:50 8,4 C 7,3 C 96 % 1006,2 hPa 0,0 l/m 0 min 0 min 0,0 UV-I 0 W/m 2,6 km/h (1 Bft)
18.05.2013 04:52 8,4 C 7,3 C 96 % 1006,2 hPa 0,0 l/m 0 min 0 min 0,0 UV-I 0 W/m 0,0 km/h (0 Bft)
18.05.2013 04:54 8,4 C 7,3 C 96 % 1006,1 hPa 0,0 l/m 0 min 0 min 0,0 UV-I 0 W/m 0,0 km/h (0 Bft)
18.05.2013 04:56 8,4 C 7,3 C 96 % 1006,2 hPa 0,0 l/m 0 min 0 min 0,0 UV-I 0 W/m 0,0 km/h (0 Bft)
18.05.2013 04:58 8,4 C 7,3 C 96 % 1006,2 hPa 0,0 l/m 0 min 0 min 0,0 UV-I 0 W/m 5,1 km/h (1 Bft)
18.05.2013 05:00 8,4 C 7,3 C 96 % 1006,2 hPa 0,0 l/m 0 min 0 min 0,0 UV-I 0 W/m 5,1 km/h (1 Bft)
18.05.2013 05:02 8,4 C 7,3 C 96 % 1006,0 hPa 0,0 l/m 0 min 0 min 0,0 UV-I 0 W/m 0,0 km/h (0 Bft)
18.05.2013 05:04 8,4 C 7,3 C 96 % 1006,0 hPa 0,0 l/m 0 min 0 min 0,0 UV-I 0 W/m 7,7 km/h (2 Bft)
18.05.2013 05:06 8,4 C 7,3 C 96 % 1006,1 hPa 0,0 l/m 0 min 0 min 0,0 UV-I 0 W/m 7,7 km/h (2 Bft)
18.05.2013 05:08 8,3 C 7,3 C 96 % 1006,2 hPa 0,0 l/m 0 min 0 min 0,0 UV-I 0 W/m 10,3 km/h (2 Bft)
18.05.2013 05:10 8,3 C 7,3 C 96 % 1006,3 hPa 0,0 l/m 0 min 0 min 0,0 UV-I 0 W/m 0,0 km/h (0 Bft)
18.05.2013 05:12 8,3 C 7,3 C 96 % 1006,2 hPa 0,0 l/m 0 min 0 min 0,0 UV-I 0 W/m 2,6 km/h (1 Bft)
18.05.2013 05:14 8,3 C 7,3 C 96 % 1006,2 hPa 0,0 l/m 0 min 0 min 0,0 UV-I 0 W/m 2,6 km/h (1 Bft)
18.05.2013 05:16 8,3 C 7,3 C 96 % 1006,2 hPa 0,0 l/m 0 min 0 min 0,0 UV-I 0 W/m 0,0 km/h (0 Bft)
18.05.2013 05:18 8,3 C 7,3 C 96 % 1006,2 hPa 0,0 l/m 0 min 0 min 0,0 UV-I 0 W/m 0,0 km/h (0 Bft)
18.05.2013 05:20 8,3 C 7,3 C 96 % 1006,3 hPa 0,0 l/m 0 min 0 min 0,0 UV-I 0 W/m 0,0 km/h (0 Bft)
18.05.2013 05:22 8,3 C 7,3 C 96 % 1006,3 hPa 0,0 l/m 0 min 0 min 0,0 UV-I 0 W/m 0,0 km/h (0 Bft)
18.05.2013 05:24 8,3 C 7,3 C 96 % 1006,3 hPa 0,0 l/m 0 min 0 min 0,0 UV-I 0 W/m 5,1 km/h (1 Bft)
18.05.2013 05:26 8,3 C 7,3 C 96 % 1006,3 hPa 0,0 l/m 0 min 0 min 0,0 UV-I 0 W/m 0,0 km/h (0 Bft)
18.05.2013 05:28 8,3 C 7,3 C 96 % 1006,4 hPa 0,0 l/m 0 min 0 min 0,0 UV-I 0 W/m 5,1 km/h (1 Bft)
18.05.2013 05:30 8,3 C 7,3 C 96 % 1006,4 hPa 0,0 l/m 0 min 0 min 0,0 UV-I 0 W/m 0,0 km/h (0 Bft)
18.05.2013 05:32 8,3 C 7,3 C 96 % 1006,4 hPa 0,0 l/m 0 min 0 min 0,0 UV-I 0 W/m 5,1 km/h (1 Bft)
18.05.2013 05:34 8,3 C 7,3 C 96 % 1006,4 hPa 0,0 l/m 0 min 0 min 0,0 UV-I 0 W/m 10,3 km/h (2 Bft)
18.05.2013 05:36 8,3 C 7,3 C 96 % 1006,4 hPa 0,0 l/m 0 min 0 min 0,0 UV-I 0 W/m 7,7 km/h (2 Bft)
18.05.2013 05:38 8,3 C 7,3 C 96 % 1006,5 hPa 0,0 l/m 0 min 0 min 0,0 UV-I 0 W/m 0,0 km/h (0 Bft)
18.05.2013 05:40 8,3 C 7,3 C 96 % 1006,4 hPa 0,0 l/m 0 min 0 min 0,0 UV-I 0 W/m 5,1 km/h (1 Bft)
18.05.2013 05:42 8,3 C 7,3 C 96 % 1006,4 hPa 0,0 l/m 0 min 0 min 0,0 UV-I 0 W/m 5,1 km/h (1 Bft)
18.05.2013 05:44 8,3 C 7,3 C 96 % 1006,4 hPa 0,0 l/m 0 min 0 min 0,0 UV-I 0 W/m 2,6 km/h (1 Bft)
18.05.2013 05:46 8,3 C 7,3 C 96 % 1006,5 hPa 0,0 l/m 0 min 0 min 0,0 UV-I 0 W/m 0,0 km/h (0 Bft)
18.05.2013 05:48 8,3 C 7,3 C 96 % 1006,5 hPa 0,0 l/m 0 min 0 min 0,0 UV-I 0 W/m 0,0 km/h (0 Bft)
18.05.2013 05:50 8,3 C 7,3 C 96 % 1006,5 hPa 0,0 l/m 0 min 0 min 0,0 UV-I 0 W/m 10,3 km/h (2 Bft)
18.05.2013 05:52 8,3 C 7,3 C 96 % 1006,6 hPa 0,0 l/m 0 min 0 min 0,0 UV-I 0 W/m 10,3 km/h (2 Bft)
18.05.2013 05:54 8,3 C 7,3 C 96 % 1006,6 hPa 0,0 l/m 0 min 0 min 0,0 UV-I 0 W/m 0,0 km/h (0 Bft)
18.05.2013 05:56 8,3 C 7,3 C 96 % 1006,6 hPa 0,0 l/m 0 min 0 min 0,0 UV-I 0 W/m 0,0 km/h (0 Bft)
18.05.2013 05:58 8,3 C 7,3 C 96 % 1006,7 hPa 0,0 l/m 0 min 0 min 0,0 UV-I 5 W/m 5,1 km/h (1 Bft)
18.05.2013 06:00 8,3 C 7,3 C 96 % 1006,6 hPa 0,0 l/m 0 min 0 min 0,0 UV-I 5 W/m 2,6 km/h (1 Bft)
18.05.2013 06:02 8,3 C 7,3 C 96 % 1006,7 hPa 0,0 l/m 0 min 0 min 0,0 UV-I 9 W/m 0,0 km/h (0 Bft)
18.05.2013 06:04 8,3 C 7,3 C 96 % 1006,7 hPa 0,0 l/m 0 min 0 min 0,0 UV-I 9 W/m 0,0 km/h (0 Bft)
18.05.2013 06:06 8,3 C 7,3 C 96 % 1006,7 hPa 0,0 l/m 0 min 0 min 0,0 UV-I 9 W/m 7,7 km/h (2 Bft)
18.05.2013 06:08 8,3 C 7,3 C 96 % 1006,7 hPa 0,0 l/m 0 min 0 min 0,0 UV-I 11 W/m 7,7 km/h (2 Bft)
18.05.2013 06:10 8,3 C 7,3 C 96 % 1006,7 hPa 0,0 l/m 0 min 0 min 0,0 UV-I 11 W/m 7,7 km/h (2 Bft)
18.05.2013 06:12 8,3 C 7,3 C 96 % 1006,8 hPa 0,0 l/m 0 min 0 min 0,0 UV-I 11 W/m 5,1 km/h (1 Bft)
18.05.2013 06:14 8,3 C 7,3 C 96 % 1006,8 hPa 0,0 l/m 0 min 0 min 0,0 UV-I 11 W/m 7,7 km/h (2 Bft)
18.05.2013 06:16 8,3 C 7,3 C 96 % 1006,8 hPa 0,0 l/m 0 min 0 min 0,0 UV-I 12 W/m 10,3 km/h (2 Bft)
18.05.2013 06:18 8,3 C 7,3 C 96 % 1006,8 hPa 0,0 l/m 0 min 0 min 0,0 UV-I 12 W/m 10,3 km/h (2 Bft)
18.05.2013 06:20 8,3 C 7,3 C 96 % 1006,9 hPa 0,0 l/m 0 min 0 min 0,0 UV-I 14 W/m 0,0 km/h (0 Bft)
18.05.2013 06:22 8,3 C 7,3 C 96 % 1006,8 hPa 0,0 l/m 0 min 0 min 0,0 UV-I 9 W/m 7,7 km/h (2 Bft)
18.05.2013 06:24 8,3 C 7,3 C 96 % 1006,8 hPa 0,0 l/m 0 min 0 min 0,0 UV-I 7 W/m 10,3 km/h (2 Bft)
18.05.2013 06:26 8,3 C 7,3 C 96 % 1006,9 hPa 0,0 l/m 0 min 0 min 0,0 UV-I 5 W/m 5,1 km/h (1 Bft)
18.05.2013 06:28 8,3 C 7,3 C 96 % 1006,8 hPa 0,0 l/m 0 min 0 min 0,0 UV-I 5 W/m 10,3 km/h (2 Bft)
18.05.2013 06:30 8,3 C 7,3 C 96 % 1006,8 hPa 0,0 l/m 0 min 0 min 0,0 UV-I 5 W/m 2,6 km/h (1 Bft)
18.05.2013 06:32 8,3 C 7,3 C 96 % 1006,8 hPa 0,0 l/m 0 min 0 min 0,0 UV-I 5 W/m 12,9 km/h (3 Bft)
18.05.2013 06:34 8,3 C 7,3 C 96 % 1006,8 hPa 0,0 l/m 0 min 0 min 0,0 UV-I 7 W/m 7,7 km/h (2 Bft)
18.05.2013 06:36 8,3 C 7,3 C 96 % 1006,7 hPa 0,0 l/m 0 min 0 min 0,0 UV-I 7 W/m 10,3 km/h (2 Bft)
18.05.2013 06:38 8,3 C 7,3 C 96 % 1006,7 hPa 0,0 l/m 0 min 0 min 0,0 UV-I 9 W/m 0,0 km/h (0 Bft)
18.05.2013 06:40 8,3 C 7,3 C 96 % 1006,7 hPa 0,0 l/m 0 min 0 min 0,0 UV-I 11 W/m 0,0 km/h (0 Bft)
18.05.2013 06:42 8,3 C 7,3 C 96 % 1006,8 hPa 0,0 l/m 0 min 0 min 0,0 UV-I 12 W/m 0,0 km/h (0 Bft)
18.05.2013 06:44 8,3 C 7,3 C 96 % 1006,8 hPa 0,0 l/m 0 min 0 min 0,0 UV-I 12 W/m 0,0 km/h (0 Bft)
18.05.2013 06:46 8,3 C 7,3 C 96 % 1006,8 hPa 0,0 l/m 0 min 0 min 0,0 UV-I 12 W/m 0,0 km/h (0 Bft)
18.05.2013 06:48 8,3 C 7,3 C 96 % 1006,9 hPa 0,0 l/m 0 min 0 min 0,0 UV-I 11 W/m 0,0 km/h (0 Bft)
18.05.2013 06:50 8,3 C 7,3 C 96 % 1006,9 hPa 0,0 l/m 0 min 0 min 0,0 UV-I 11 W/m 0,0 km/h (0 Bft)
18.05.2013 06:52 8,3 C 7,3 C 96 % 1006,9 hPa 0,0 l/m 0 min 0 min 0,0 UV-I 9 W/m 5,1 km/h (1 Bft)
18.05.2013 06:54 8,3 C 7,3 C 96 % 1006,9 hPa 0,0 l/m 0 min 0 min 0,0 UV-I 9 W/m 0,0 km/h (0 Bft)
18.05.2013 06:56 8,3 C 7,3 C 96 % 1007,0 hPa 0,0 l/m 0 min 0 min 0,0 UV-I 9 W/m 0,0 km/h (0 Bft)
18.05.2013 06:58 8,3 C 7,3 C 96 % 1007,0 hPa 0,0 l/m 0 min 0 min 0,0 UV-I 12 W/m 0,0 km/h (0 Bft)
18.05.2013 07:00 8,3 C 7,3 C 96 % 1007,0 hPa 0,0 l/m 0 min 0 min 0,0 UV-I 12 W/m 0,0 km/h (0 Bft)
18.05.2013 07:02 8,3 C 7,3 C 96 % 1007,0 hPa 0,0 l/m 0 min 0 min 0,0 UV-I 11 W/m 2,6 km/h (1 Bft)
18.05.2013 07:04 8,3 C 7,3 C 96 % 1007,1 hPa 0,0 l/m 0 min 0 min 0,0 UV-I 12 W/m 0,0 km/h (0 Bft)
18.05.2013 07:06 8,3 C 7,3 C 96 % 1007,1 hPa 0,0 l/m 0 min 0 min 0,0 UV-I 11 W/m 0,0 km/h (0 Bft)
18.05.2013 07:08 8,3 C 7,3 C 96 % 1007,1 hPa 0,0 l/m 0 min 0 min 0,0 UV-I 11 W/m 0,0 km/h (0 Bft)
18.05.2013 07:10 8,3 C 7,3 C 96 % 1007,2 hPa 0,0 l/m 0 min 0 min 0,0 UV-I 11 W/m 0,0 km/h (0 Bft)
18.05.2013 07:12 8,3 C 7,3 C 96 % 1007,1 hPa 0,0 l/m 0 min 0 min 0,0 UV-I 11 W/m 0,0 km/h (0 Bft)
18.05.2013 07:14 8,3 C 7,3 C 96 % 1007,2 hPa 0,0 l/m 0 min 0 min 0,0 UV-I 11 W/m 0,0 km/h (0 Bft)
18.05.2013 07:16 8,3 C 7,3 C 96 % 1007,1 hPa 0,0 l/m 0 min 0 min 0,0 UV-I 12 W/m 0,0 km/h (0 Bft)
18.05.2013 07:18 8,3 C 7,3 C 96 % 1007,1 hPa 0,0 l/m 0 min 0 min 0,0 UV-I 11 W/m 0,0 km/h (0 Bft)
18.05.2013 07:20 8,3 C 7,3 C 97 % 1007,2 hPa 0,0 l/m 0 min 0 min 0,0 UV-I 12 W/m 0,0 km/h (0 Bft)
18.05.2013 07:22 8,3 C 7,3 C 97 % 1007,1 hPa 0,0 l/m 0 min 0 min 0,0 UV-I 12 W/m 2,6 km/h (1 Bft)
18.05.2013 07:24 8,3 C 7,3 C 97 % 1007,1 hPa 0,0 l/m 0 min 0 min 0,0 UV-I 14 W/m 5,1 km/h (1 Bft)
18.05.2013 07:26 8,3 C 7,3 C 97 % 1007,1 hPa 0,0 l/m 0 min 0 min 0,0 UV-I 16 W/m 2,6 km/h (1 Bft)
18.05.2013 07:28 8,3 C 7,3 C 97 % 1007,2 hPa 0,0 l/m 0 min 0 min 0,0 UV-I 16 W/m 0,0 km/h (0 Bft)
18.05.2013 07:30 8,3 C 7,3 C 97 % 1007,2 hPa 0,0 l/m 0 min 0 min 0,0 UV-I 19 W/m 5,1 km/h (1 Bft)
18.05.2013 07:32 8,3 C 7,3 C 97 % 1007,2 hPa 0,0 l/m 0 min 0 min 0,0 UV-I 26 W/m 5,1 km/h (1 Bft)
18.05.2013 07:34 8,3 C 7,3 C 97 % 1007,3 hPa 0,0 l/m 0 min 0 min 0,0 UV-I 28 W/m 10,3 km/h (2 Bft)
18.05.2013 07:36 8,3 C 7,3 C 97 % 1007,3 hPa 0,0 l/m 0 min 0 min 0,0 UV-I 28 W/m 12,9 km/h (3 Bft)
18.05.2013 07:38 8,3 C 7,3 C 97 % 1007,3 hPa 0,0 l/m 0 min 0 min 0,0 UV-I 33 W/m 0,0 km/h (0 Bft)
18.05.2013 07:40 8,3 C 7,3 C 97 % 1007,3 hPa 0,0 l/m 0 min 0 min 0,0 UV-I 32 W/m 0,0 km/h (0 Bft)
18.05.2013 07:42 8,3 C 7,3 C 97 % 1007,4 hPa 0,0 l/m 0 min 0 min 0,0 UV-I 33 W/m 0,0 km/h (0 Bft)
18.05.2013 07:44 8,3 C 7,3 C 97 % 1007,4 hPa 0,0 l/m 0 min 0 min 0,0 UV-I 33 W/m 5,1 km/h (1 Bft)
18.05.2013 07:46 8,3 C 7,3 C 97 % 1007,4 hPa 0,0 l/m 0 min 0 min 0,0 UV-I 35 W/m 2,6 km/h (1 Bft)
18.05.2013 07:48 8,3 C 7,9 C 97 % 1007,4 hPa 0,0 l/m 0 min 0 min 0,0 UV-I 37 W/m 0,0 km/h (0 Bft)
18.05.2013 07:50 8,3 C 7,9 C 97 % 1007,5 hPa 0,0 l/m 0 min 0 min 0,0 UV-I 40 W/m 10,3 km/h (2 Bft)
18.05.2013 07:52 8,3 C 7,9 C 97 % 1007,6 hPa 0,0 l/m 0 min 0 min 0,0 UV-I 46 W/m 2,6 km/h (1 Bft)
18.05.2013 07:54 8,3 C 7,9 C 97 % 1007,5 hPa 0,0 l/m 0 min 0 min 0,0 UV-I 49 W/m 0,0 km/h (0 Bft)
18.05.2013 07:56 8,3 C 7,9 C 97 % 1007,5 hPa 0,0 l/m 0 min 0 min 0,0 UV-I 51 W/m 0,0 km/h (0 Bft)
18.05.2013 07:58 8,3 C 7,9 C 97 % 1007,5 hPa 0,0 l/m 0 min 0 min 0,0 UV-I 51 W/m 0,0 km/h (0 Bft)
18.05.2013 08:00 8,3 C 7,9 C 97 % 1007,5 hPa 0,0 l/m 0 min 0 min 0,0 UV-I 54 W/m 0,0 km/h (0 Bft)
18.05.2013 08:02 8,3 C 7,9 C 97 % 1007,5 hPa 0,0 l/m 0 min 0 min 0,0 UV-I 63 W/m 5,1 km/h (1 Bft)
18.05.2013 08:04 8,4 C 7,9 C 97 % 1007,5 hPa 0,0 l/m 0 min 0 min 0,0 UV-I 70 W/m 5,1 km/h (1 Bft)
18.05.2013 08:06 8,4 C 7,9 C 97 % 1007,5 hPa 0,0 l/m 0 min 0 min 0,0 UV-I 65 W/m 10,3 km/h (2 Bft)
18.05.2013 08:08 8,4 C 7,9 C 97 % 1007,6 hPa 0,0 l/m 0 min 0 min 0,0 UV-I 63 W/m 5,1 km/h (1 Bft)
18.05.2013 08:10 8,4 C 7,9 C 97 % 1007,6 hPa 0,0 l/m 0 min 0 min 0,0 UV-I 67 W/m 2,6 km/h (1 Bft)
18.05.2013 08:12 8,4 C 7,9 C 97 % 1007,6 hPa 0,0 l/m 0 min 0 min 0,0 UV-I 65 W/m 7,7 km/h (2 Bft)
18.05.2013 08:14 8,4 C 8,4 C 97 % 1007,6 hPa 0,0 l/m 0 min 0 min 0,0 UV-I 63 W/m 5,1 km/h (1 Bft)
18.05.2013 08:16 8,4 C 8,4 C 97 % 1007,5 hPa 0,0 l/m 0 min 0 min 0,0 UV-I 63 W/m 0,0 km/h (0 Bft)
18.05.2013 08:18 8,5 C 8,4 C 97 % 1007,5 hPa 0,0 l/m 0 min 0 min 0,0 UV-I 67 W/m 0,0 km/h (0 Bft)
18.05.2013 08:20 8,5 C 8,4 C 97 % 1007,5 hPa 0,0 l/m 0 min 0 min 0,0 UV-I 67 W/m 0,0 km/h (0 Bft)
18.05.2013 08:22 8,5 C 8,4 C 97 % 1007,5 hPa 0,0 l/m 0 min 0 min 0,0 UV-I 65 W/m 7,7 km/h (2 Bft)
18.05.2013 08:24 8,5 C 8,4 C 97 % 1007,6 hPa 0,0 l/m 0 min 0 min 0,0 UV-I 60 W/m 5,1 km/h (1 Bft)
18.05.2013 08:26 8,6 C 8,4 C 97 % 1007,6 hPa 0,0 l/m 0 min 0 min 0,0 UV-I 62 W/m 10,3 km/h (2 Bft)
18.05.2013 08:28 8,5 C 8,4 C 97 % 1007,6 hPa 0,0 l/m 0 min 0 min 0,0 UV-I 58 W/m 5,1 km/h (1 Bft)
18.05.2013 08:30 8,5 C 8,4 C 97 % 1007,6 hPa 0,0 l/m 0 min 0 min 0,0 UV-I 58 W/m 7,7 km/h (2 Bft)
18.05.2013 08:32 8,6 C 8,4 C 97 % 1007,5 hPa 0,0 l/m 0 min 0 min 0,0 UV-I 67 W/m 7,7 km/h (2 Bft)
18.05.2013 08:34 8,6 C 8,4 C 97 % 1007,6 hPa 0,0 l/m 0 min 0 min 0,0 UV-I 74 W/m 0,0 km/h (0 Bft)
18.05.2013 08:36 8,6 C 8,4 C 97 % 1007,6 hPa 0,0 l/m 0 min 0 min 0,0 UV-I 77 W/m 0,0 km/h (0 Bft)
18.05.2013 08:38 8,6 C 8,4 C 97 % 1007,7 hPa 0,0 l/m 0 min 0 min 0,0 UV-I 70 W/m 5,1 km/h (1 Bft)
18.05.2013 08:40 8,6 C 8,4 C 97 % 1007,7 hPa 0,0 l/m 0 min 0 min 0,0 UV-I 63 W/m 0,0 km/h (0 Bft)
18.05.2013 08:42 8,6 C 8,4 C 97 % 1007,7 hPa 0,0 l/m 0 min 0 min 0,0 UV-I 62 W/m 0,0 km/h (0 Bft)
18.05.2013 08:44 8,6 C 8,4 C 96 % 1007,6 hPa 0,0 l/m 0 min 0 min 0,0 UV-I 56 W/m 0,0 km/h (0 Bft)
18.05.2013 08:46 8,6 C 8,4 C 96 % 1007,6 hPa 0,0 l/m 0 min 0 min 0,0 UV-I 51 W/m 0,0 km/h (0 Bft)
18.05.2013 08:48 8,7 C 8,4 C 96 % 1007,6 hPa 0,0 l/m 0 min 0 min 0,0 UV-I 51 W/m 7,7 km/h (2 Bft)
18.05.2013 08:50 8,7 C 8,4 C 96 % 1007,7 hPa 0,0 l/m 0 min 0 min 0,0 UV-I 53 W/m 0,0 km/h (0 Bft)
18.05.2013 08:52 8,7 C 8,4 C 96 % 1007,7 hPa 0,0 l/m 0 min 0 min 0,0 UV-I 53 W/m 5,1 km/h (1 Bft)
18.05.2013 08:54 8,7 C 8,4 C 96 % 1007,7 hPa 0,0 l/m 0 min 0 min 0,0 UV-I 53 W/m 10,3 km/h (2 Bft)
18.05.2013 08:56 8,7 C 8,4 C 96 % 1007,7 hPa 0,0 l/m 0 min 0 min 0,0 UV-I 54 W/m 5,1 km/h (1 Bft)
18.05.2013 08:58 8,7 C 8,4 C 96 % 1007,7 hPa 0,0 l/m 0 min 0 min 0,0 UV-I 53 W/m 5,1 km/h (1 Bft)
18.05.2013 09:00 8,7 C 8,4 C 96 % 1007,7 hPa 0,0 l/m 0 min 0 min 0,0 UV-I 58 W/m 0,0 km/h (0 Bft)
18.05.2013 09:02 8,7 C 8,4 C 96 % 1007,9 hPa 0,0 l/m 0 min 0 min 0,0 UV-I 58 W/m 0,0 km/h (0 Bft)
18.05.2013 09:04 8,7 C 8,4 C 96 % 1008,1 hPa 0,0 l/m 0 min 0 min 0,0 UV-I 54 W/m 0,0 km/h (0 Bft)
18.05.2013 09:06 8,7 C 8,4 C 96 % 1008,1 hPa 0,0 l/m 0 min 0 min 0,0 UV-I 49 W/m 0,0 km/h (0 Bft)
18.05.2013 09:08 8,7 C 8,4 C 96 % 1008,1 hPa 0,0 l/m 0 min 0 min 0,0 UV-I 53 W/m 5,1 km/h (1 Bft)
18.05.2013 09:10 8,7 C 8,4 C 96 % 1008,1 hPa 0,0 l/m 0 min 0 min 0,0 UV-I 53 W/m 0,0 km/h (0 Bft)
18.05.2013 09:12 8,8 C 8,4 C 96 % 1008,1 hPa 0,0 l/m 0 min 0 min 0,0 UV-I 54 W/m 0,0 km/h (0 Bft)
18.05.2013 09:14 8,8 C 8,4 C 96 % 1008,0 hPa 0,0 l/m 0 min 0 min 0,0 UV-I 56 W/m 0,0 km/h (0 Bft)
18.05.2013 09:16 8,8 C 8,4 C 96 % 1008,0 hPa 0,0 l/m 0 min 0 min 0,0 UV-I 60 W/m 0,0 km/h (0 Bft)
18.05.2013 09:18 8,8 C 8,4 C 96 % 1008,1 hPa 0,0 l/m 0 min 0 min 0,0 UV-I 62 W/m 2,6 km/h (1 Bft)
18.05.2013 09:20 8,8 C 8,4 C 96 % 1008,1 hPa 0,0 l/m 0 min 0 min 0,0 UV-I 62 W/m 0,0 km/h (0 Bft)
18.05.2013 09:22 8,8 C 8,4 C 96 % 1008,2 hPa 0,0 l/m 0 min 0 min 0,0 UV-I 58 W/m 5,1 km/h (1 Bft)
18.05.2013 09:24 8,8 C 8,4 C 96 % 1008,2 hPa 0,0 l/m 0 min 0 min 0,0 UV-I 53 W/m 2,6 km/h (1 Bft)
18.05.2013 09:26 8,8 C 8,4 C 96 % 1008,2 hPa 0,0 l/m 0 min 0 min 0,0 UV-I 56 W/m 0,0 km/h (0 Bft)
18.05.2013 09:28 8,8 C 8,4 C 96 % 1008,1 hPa 0,0 l/m 0 min 0 min 0,0 UV-I 56 W/m 10,3 km/h (2 Bft)
18.05.2013 09:30 8,8 C 8,4 C 96 % 1008,1 hPa 0,0 l/m 0 min 0 min 0,0 UV-I 56 W/m 10,3 km/h (2 Bft)
18.05.2013 09:32 8,8 C 8,4 C 96 % 1008,1 hPa 0,0 l/m 0 min 0 min 0,0 UV-I 60 W/m 12,9 km/h (3 Bft)
18.05.2013 09:34 8,8 C 8,4 C 95 % 1008,0 hPa 0,0 l/m 0 min 0 min 0,0 UV-I 69 W/m 0,0 km/h (0 Bft)
18.05.2013 09:36 8,8 C 8,4 C 95 % 1008,1 hPa 0,0 l/m 0 min 0 min 0,0 UV-I 65 W/m 0,0 km/h (0 Bft)
18.05.2013 09:38 8,8 C 8,4 C 95 % 1008,1 hPa 0,0 l/m 0 min 0 min 0,0 UV-I 70 W/m 0,0 km/h (0 Bft)
18.05.2013 09:40 8,8 C 8,4 C 95 % 1008,1 hPa 0,0 l/m 0 min 0 min 0,0 UV-I 86 W/m 2,6 km/h (1 Bft)
18.05.2013 09:42 8,8 C 8,4 C 95 % 1008,1 hPa 0,0 l/m 0 min 0 min 0,0 UV-I 91 W/m 10,3 km/h (2 Bft)
18.05.2013 09:44 8,9 C 8,4 C 95 % 1008,1 hPa 0,0 l/m 0 min 0 min 0,0 UV-I 77 W/m 0,0 km/h (0 Bft)
18.05.2013 09:46 8,9 C 8,4 C 95 % 1008,0 hPa 0,0 l/m 0 min 0 min 0,0 UV-I 69 W/m 0,0 km/h (0 Bft)
18.05.2013 09:48 8,9 C 8,4 C 95 % 1008,1 hPa 0,0 l/m 0 min 0 min 0,0 UV-I 74 W/m 0,0 km/h (0 Bft)
18.05.2013 09:50 8,9 C 8,4 C 95 % 1008,1 hPa 0,0 l/m 0 min 0 min 0,0 UV-I 83 W/m 0,0 km/h (0 Bft)
18.05.2013 09:52 8,9 C 8,4 C 95 % 1008,1 hPa 0,0 l/m 0 min 0 min 0,0 UV-I 81 W/m 0,0 km/h (0 Bft)
18.05.2013 09:54 8,9 C 9,0 C 95 % 1008,1 hPa 0,0 l/m 0 min 0 min 0,0 UV-I 88 W/m 0,0 km/h (0 Bft)
18.05.2013 09:56 8,9 C 9,0 C 95 % 1008,1 hPa 0,0 l/m 0 min 0 min 0,0 UV-I 77 W/m 0,0 km/h (0 Bft)
18.05.2013 09:58 9,0 C 9,0 C 95 % 1008,0 hPa 0,0 l/m 0 min 0 min 0,0 UV-I 70 W/m 0,0 km/h (0 Bft)
18.05.2013 10:00 9,0 C 8,4 C 95 % 1008,1 hPa 0,0 l/m 0 min 0 min 0,0 UV-I 62 W/m 0,0 km/h (0 Bft)
18.05.2013 10:02 9,0 C 8,4 C 99 % 1008,1 hPa 0,0 l/m 0 min 0 min 0,0 UV-I 62 W/m 0,0 km/h (0 Bft)
18.05.2013 10:04 9,0 C 8,4 C 95 % 1008,0 hPa 0,0 l/m 0 min 0 min 0,0 UV-I 63 W/m 5,1 km/h (1 Bft)
18.05.2013 10:06 9,1 C 8,4 C 95 % 1008,0 hPa 0,0 l/m 0 min 0 min 0,0 UV-I 81 W/m 2,6 km/h (1 Bft)
18.05.2013 10:08 9,1 C 8,4 C 96 % 1008,1 hPa 0,0 l/m 0 min 0 min 0,0 UV-I 95 W/m 2,6 km/h (1 Bft)
18.05.2013 10:10 9,1 C 8,4 C 96 % 1008,2 hPa 0,0 l/m 0 min 0 min 0,0 UV-I 79 W/m 5,1 km/h (1 Bft)
18.05.2013 10:12 9,1 C 8,4 C 96 % 1008,3 hPa 0,0 l/m 0 min 0 min 0,0 UV-I 69 W/m 0,0 km/h (0 Bft)
18.05.2013 10:14 9,1 C 8,4 C 96 % 1008,4 hPa 0,0 l/m 0 min 0 min 0,0 UV-I 74 W/m 7,7 km/h (2 Bft)
18.05.2013 10:16 9,1 C 8,4 C 95 % 1008,4 hPa 0,0 l/m 0 min 0 min 0,0 UV-I 74 W/m 5,1 km/h (1 Bft)
18.05.2013 10:18 9,1 C 8,4 C 95 % 1008,4 hPa 0,0 l/m 0 min 0 min 0,0 UV-I 91 W/m 0,0 km/h (0 Bft)
18.05.2013 10:20 9,1 C 8,4 C 95 % 1008,4 hPa 0,0 l/m 0 min 0 min 0,0 UV-I 127 W/m 10,3 km/h (2 Bft)
18.05.2013 10:22 9,1 C 9,0 C 95 % 1008,3 hPa 0,0 l/m 0 min 0 min 0,0 UV-I 155 W/m 7,7 km/h (2 Bft)
18.05.2013 10:24 9,1 C 9,0 C 95 % 1008,3 hPa 0,0 l/m 0 min 0 min 0,0 UV-I 155 W/m 2,6 km/h (1 Bft)
18.05.2013 10:26 9,1 C 9,0 C 95 % 1008,3 hPa 0,0 l/m 0 min 0 min 0,0 UV-I 155 W/m 0,0 km/h (0 Bft)
18.05.2013 10:28 9,1 C 9,6 C 95 % 1008,3 hPa 0,0 l/m 0 min 0 min 0,0 UV-I 148 W/m 5,1 km/h (1 Bft)
18.05.2013 10:30 9,2 C 9,6 C 95 % 1008,3 hPa 0,0 l/m 0 min 0 min 0,0 UV-I 139 W/m 10,3 km/h (2 Bft)
18.05.2013 10:32 9,2 C 9,6 C 95 % 1008,4 hPa 0,0 l/m 0 min 0 min 0,0 UV-I 125 W/m 0,0 km/h (0 Bft)
18.05.2013 10:34 9,2 C 9,6 C 95 % 1008,4 hPa 0,0 l/m 0 min 0 min 0,0 UV-I 114 W/m 0,0 km/h (0 Bft)
18.05.2013 10:36 9,2 C 9,6 C 95 % 1008,4 hPa 0,0 l/m 0 min 0 min 0,0 UV-I 137 W/m 5,1 km/h (1 Bft)
18.05.2013 10:38 9,3 C 9,6 C 95 % 1008,4 hPa 0,0 l/m 0 min 0 min 0,0 UV-I 156 W/m 10,3 km/h (2 Bft)
18.05.2013 10:40 9,3 C 9,6 C 95 % 1008,4 hPa 0,0 l/m 0 min 0 min 0,0 UV-I 197 W/m 0,0 km/h (0 Bft)
18.05.2013 10:42 9,3 C 10,1 C 95 % 1008,4 hPa 0,0 l/m 0 min 0 min 0,0 UV-I 211 W/m 0,0 km/h (0 Bft)
18.05.2013 10:44 9,4 C 10,1 C 95 % 1008,4 hPa 0,0 l/m 0 min 0 min 0,0 UV-I 211 W/m 5,1 km/h (1 Bft)
18.05.2013 10:46 9,4 C 10,1 C 95 % 1008,5 hPa 0,0 l/m 0 min 0 min 0,0 UV-I 193 W/m 5,1 km/h (1 Bft)
18.05.2013 10:48 9,5 C 10,1 C 95 % 1008,5 hPa 0,0 l/m 0 min 0 min 0,0 UV-I 172 W/m 0,0 km/h (0 Bft)
18.05.2013 10:50 9,6 C 10,7 C 95 % 1008,5 hPa 0,0 l/m 0 min 0 min 0,0 UV-I 148 W/m 0,0 km/h (0 Bft)
18.05.2013 10:52 9,6 C 10,1 C 95 % 1008,6 hPa 0,0 l/m 0 min 0 min 0,0 UV-I 183 W/m 10,3 km/h (2 Bft)
18.05.2013 10:54 9,7 C 10,7 C 95 % 1008,7 hPa 0,0 l/m 0 min 0 min 0,6 UV-I 243 W/m 0,0 km/h (0 Bft)
18.05.2013 10:56 9,7 C 10,7 C 95 % 1008,7 hPa 0,0 l/m 0 min 0 min 0,9 UV-I 309 W/m 0,0 km/h (0 Bft)
18.05.2013 10:58 9,9 C 11,2 C 95 % 1008,7 hPa 0,0 l/m 0 min 0 min 0,9 UV-I 306 W/m 2,6 km/h (1 Bft)
18.05.2013 11:00 10,1 C 11,2 C 95 % 1008,6 hPa 0,0 l/m 0 min 0 min 0,7 UV-I 281 W/m 5,1 km/h (1 Bft)
18.05.2013 11:02 10,2 C 11,2 C 94 % 1008,7 hPa 0,0 l/m 0 min 0 min 0,0 UV-I 220 W/m 7,7 km/h (2 Bft)
18.05.2013 11:04 10,3 C 11,2 C 94 % 1008,8 hPa 0,0 l/m 0 min 0 min 0,0 UV-I 192 W/m 0,0 km/h (0 Bft)
18.05.2013 11:06 10,3 C 10,7 C 93 % 1008,8 hPa 0,0 l/m 0 min 0 min 0,0 UV-I 190 W/m 7,7 km/h (2 Bft)
18.05.2013 11:08 10,3 C 10,7 C 92 % 1008,8 hPa 0,0 l/m 0 min 0 min 0,0 UV-I 209 W/m 2,6 km/h (1 Bft)
18.05.2013 11:10 10,4 C 11,2 C 92 % 1008,8 hPa 0,0 l/m 0 min 0 min 0,5 UV-I 220 W/m 2,6 km/h (1 Bft)
18.05.2013 11:12 10,4 C 11,2 C 92 % 1008,8 hPa 0,0 l/m 0 min 0 min 0,5 UV-I 230 W/m 0,0 km/h (0 Bft)
18.05.2013 11:14 10,5 C 10,7 C 92 % 1008,8 hPa 0,0 l/m 0 min 0 min 0,5 UV-I 236 W/m 2,6 km/h (1 Bft)
18.05.2013 11:16 10,5 C 10,7 C 91 % 1008,9 hPa 0,0 l/m 0 min 0 min 0,0 UV-I 197 W/m 2,6 km/h (1 Bft)
18.05.2013 11:18 10,5 C 10,7 C 91 % 1008,9 hPa 0,0 l/m 0 min 0 min 0,0 UV-I 188 W/m 7,7 km/h (2 Bft)
18.05.2013 11:20 10,6 C 10,7 C 91 % 1008,8 hPa 0,0 l/m 0 min 0 min 0,0 UV-I 185 W/m 0,0 km/h (0 Bft)
18.05.2013 11:22 10,6 C 10,7 C 91 % 1008,8 hPa 0,0 l/m 0 min 0 min 0,0 UV-I 176 W/m 0,0 km/h (0 Bft)
18.05.2013 11:24 10,6 C 10,7 C 90 % 1008,8 hPa 0,0 l/m 0 min 0 min 0,0 UV-I 155 W/m 0,0 km/h (0 Bft)
18.05.2013 11:26 10,6 C 10,7 C 90 % 1008,8 hPa 0,0 l/m 0 min 0 min 0,0 UV-I 134 W/m 2,6 km/h (1 Bft)
18.05.2013 11:28 10,6 C 10,7 C 90 % 1008,8 hPa 0,0 l/m 0 min 0 min 0,0 UV-I 109 W/m 2,6 km/h (1 Bft)
18.05.2013 11:30 10,6 C 10,7 C 90 % 1008,8 hPa 0,0 l/m 0 min 0 min 0,0 UV-I 95 W/m 10,3 km/h (2 Bft)
18.05.2013 11:32 10,6 C 10,1 C 90 % 1008,8 hPa 0,0 l/m 0 min 0 min 0,0 UV-I 86 W/m 5,1 km/h (1 Bft)
18.05.2013 11:34 10,6 C 10,1 C 89 % 1008,9 hPa 0,0 l/m 0 min 0 min 0,0 UV-I 88 W/m 0,0 km/h (0 Bft)
18.05.2013 11:36 10,6 C 10,1 C 89 % 1008,9 hPa 0,0 l/m 0 min 0 min 0,0 UV-I 95 W/m 5,1 km/h (1 Bft)
18.05.2013 11:38 10,6 C 10,1 C 89 % 1008,9 hPa 0,0 l/m 0 min 0 min 0,0 UV-I 118 W/m 7,7 km/h (2 Bft)
18.05.2013 11:40 10,6 C 10,1 C 88 % 1008,9 hPa 0,0 l/m 0 min 0 min 0,0 UV-I 193 W/m 0,0 km/h (0 Bft)
18.05.2013 11:42 10,6 C 10,1 C 88 % 1008,9 hPa 0,0 l/m 0 min 0 min 0,0 UV-I 185 W/m 0,0 km/h (0 Bft)
18.05.2013 11:44 10,6 C 10,7 C 88 % 1009,0 hPa 0,0 l/m 0 min 0 min 0,0 UV-I 127 W/m 0,0 km/h (0 Bft)
18.05.2013 11:46 10,6 C 10,1 C 88 % 1009,0 hPa 0,0 l/m 0 min 0 min 0,0 UV-I 107 W/m 0,0 km/h (0 Bft)
18.05.2013 11:48 10,6 C 10,1 C 88 % 1009,0 hPa 0,0 l/m 0 min 0 min 0,0 UV-I 100 W/m 5,1 km/h (1 Bft)
18.05.2013 11:50 10,6 C 10,1 C 88 % 1009,0 hPa 0,0 l/m 0 min 0 min 0,0 UV-I 104 W/m 0,0 km/h (0 Bft)
18.05.2013 11:52 10,6 C 10,1 C 88 % 1009,0 hPa 0,0 l/m 0 min 0 min 0,0 UV-I 121 W/m 0,0 km/h (0 Bft)
18.05.2013 11:54 10,6 C 10,1 C 88 % 1009,1 hPa 0,0 l/m 0 min 0 min 0,0 UV-I 141 W/m 0,0 km/h (0 Bft)
18.05.2013 11:56 10,6 C 10,7 C 88 % 1009,0 hPa 0,0 l/m 0 min 0 min 0,0 UV-I 181 W/m 0,0 km/h (0 Bft)
18.05.2013 11:58 10,6 C 10,7 C 88 % 1009,0 hPa 0,0 l/m 0 min 0 min 0,0 UV-I 197 W/m 0,0 km/h (0 Bft)
18.05.2013 12:00 10,7 C 10,7 C 89 % 1009,1 hPa 0,0 l/m 0 min 0 min 0,0 UV-I 185 W/m 0,0 km/h (0 Bft)
18.05.2013 12:02 10,7 C 10,7 C 89 % 1009,0 hPa 0,0 l/m 0 min 0 min 0,0 UV-I 188 W/m 0,0 km/h (0 Bft)
18.05.2013 12:04 10,7 C 10,7 C 89 % 1009,1 hPa 0,0 l/m 0 min 0 min 0,0 UV-I 183 W/m 2,6 km/h (1 Bft)
18.05.2013 12:06 10,7 C 10,7 C 89 % 1009,1 hPa 0,0 l/m 0 min 0 min 0,0 UV-I 178 W/m 0,0 km/h (0 Bft)
18.05.2013 12:08 10,8 C 10,7 C 89 % 1009,1 hPa 0,0 l/m 0 min 0 min 0,0 UV-I 162 W/m 5,1 km/h (1 Bft)
18.05.2013 12:10 10,8 C 10,7 C 89 % 1009,1 hPa 0,0 l/m 0 min 0 min 0,0 UV-I 148 W/m 2,6 km/h (1 Bft)
18.05.2013 12:12 10,8 C 10,7 C 89 % 1009,1 hPa 0,0 l/m 0 min 0 min 0,0 UV-I 146 W/m 2,6 km/h (1 Bft)
18.05.2013 12:14 10,8 C 10,7 C 88 % 1009,1 hPa 0,0 l/m 0 min 0 min 0,0 UV-I 176 W/m 7,7 km/h (2 Bft)
18.05.2013 12:16 10,8 C 10,7 C 88 % 1009,0 hPa 0,0 l/m 0 min 0 min 0,0 UV-I 183 W/m 0,0 km/h (0 Bft)
18.05.2013 12:18 10,8 C 10,7 C 88 % 1009,0 hPa 0,0 l/m 0 min 0 min 0,5 UV-I 213 W/m 2,6 km/h (1 Bft)
18.05.2013 12:20 10,8 C 11,2 C 88 % 1009,0 hPa 0,0 l/m 0 min 0 min 0,9 UV-I 316 W/m 0,0 km/h (0 Bft)
18.05.2013 12:22 10,9 C 11,8 C 88 % 1009,0 hPa 0,0 l/m 0 min 0 min 1,4 UV-I 380 W/m 0,0 km/h (0 Bft)
18.05.2013 12:24 11,0 C 11,8 C 88 % 1009,0 hPa 0,0 l/m 0 min 0 min 1,3 UV-I 350 W/m 2,6 km/h (1 Bft)
18.05.2013 12:26 11,2 C 12,3 C 88 % 1009,0 hPa 0,0 l/m 0 min 0 min 0,9 UV-I 248 W/m 0,0 km/h (0 Bft)
18.05.2013 12:28 11,3 C 11,8 C 88 % 1009,0 hPa 0,0 l/m 0 min 0 min 0,0 UV-I 186 W/m 0,0 km/h (0 Bft)
18.05.2013 12:30 11,3 C 11,8 C 87 % 1009,0 hPa 0,0 l/m 0 min 0 min 0,0 UV-I 160 W/m 0,0 km/h (0 Bft)
18.05.2013 12:32 11,3 C 11,8 C 87 % 1009,0 hPa 0,0 l/m 0 min 0 min 0,0 UV-I 149 W/m 0,0 km/h (0 Bft)
18.05.2013 12:34 11,4 C 11,2 C 87 % 1009,0 hPa 0,0 l/m 0 min 0 min 0,0 UV-I 169 W/m 0,0 km/h (0 Bft)
18.05.2013 12:36 11,4 C 11,2 C 87 % 1009,0 hPa 0,0 l/m 0 min 0 min 0,0 UV-I 165 W/m 5,1 km/h (1 Bft)
18.05.2013 12:38 11,4 C 11,2 C 87 % 1009,1 hPa 0,0 l/m 0 min 0 min 0,0 UV-I 120 W/m 0,0 km/h (0 Bft)
18.05.2013 12:40 11,4 C 11,2 C 86 % 1009,1 hPa 0,0 l/m 0 min 0 min 0,0 UV-I 125 W/m 0,0 km/h (0 Bft)
18.05.2013 12:42 11,4 C 11,2 C 86 % 1009,0 hPa 0,0 l/m 0 min 0 min 0,0 UV-I 142 W/m 0,0 km/h (0 Bft)
18.05.2013 12:44 11,4 C 11,2 C 86 % 1009,2 hPa 0,0 l/m 0 min 0 min 0,0 UV-I 178 W/m 0,0 km/h (0 Bft)
18.05.2013 12:46 11,4 C 11,2 C 86 % 1009,1 hPa 0,0 l/m 0 min 0 min 0,0 UV-I 200 W/m 0,0 km/h (0 Bft)
18.05.2013 12:48 11,4 C 11,2 C 86 % 1009,1 hPa 0,0 l/m 0 min 0 min 0,5 UV-I 209 W/m 0,0 km/h (0 Bft)
18.05.2013 12:50 11,4 C 11,8 C 86 % 1009,1 hPa 0,0 l/m 0 min 0 min 1,0 UV-I 285 W/m 2,6 km/h (1 Bft)
18.05.2013 12:52 11,5 C 11,8 C 86 % 1009,1 hPa 0,0 l/m 0 min 0 min 0,9 UV-I 265 W/m 2,6 km/h (1 Bft)
18.05.2013 12:54 11,5 C 12,3 C 86 % 1009,1 hPa 0,0 l/m 0 min 0 min 0,7 UV-I 223 W/m 2,6 km/h (1 Bft)
18.05.2013 12:56 11,6 C 12,3 C 86 % 1009,1 hPa 0,0 l/m 0 min 0 min 0,7 UV-I 225 W/m 0,0 km/h (0 Bft)
18.05.2013 12:58 11,6 C 11,8 C 86 % 1009,0 hPa 0,0 l/m 0 min 0 min 0,0 UV-I 185 W/m 0,0 km/h (0 Bft)
18.05.2013 13:00 11,7 C 11,8 C 86 % 1009,0 hPa 0,0 l/m 0 min 0 min 0,0 UV-I 172 W/m 0,0 km/h (0 Bft)
18.05.2013 13:02 11,7 C 11,8 C 86 % 1009,0 hPa 0,0 l/m 0 min 0 min 0,0 UV-I 151 W/m 5,1 km/h (1 Bft)
18.05.2013 13:04 11,7 C 11,2 C 86 % 1009,0 hPa 0,0 l/m 0 min 0 min 0,0 UV-I 135 W/m 12,9 km/h (3 Bft)
18.05.2013 13:06 11,7 C 11,2 C 85 % 1009,0 hPa 0,0 l/m 0 min 0 min 0,0 UV-I 109 W/m 0,0 km/h (0 Bft)
18.05.2013 13:08 11,7 C 11,2 C 85 % 1009,1 hPa 0,0 l/m 0 min 0 min 0,0 UV-I 100 W/m 0,0 km/h (0 Bft)
18.05.2013 13:10 11,7 C 11,2 C 85 % 1009,1 hPa 0,0 l/m 0 min 0 min 0,0 UV-I 109 W/m 0,0 km/h (0 Bft)
18.05.2013 13:12 11,7 C 11,2 C 85 % 1009,1 hPa 0,0 l/m 0 min 0 min 0,0 UV-I 135 W/m 0,0 km/h (0 Bft)
18.05.2013 13:14 11,7 C 11,2 C 85 % 1009,1 hPa 0,0 l/m 0 min 0 min 0,0 UV-I 158 W/m 5,1 km/h (1 Bft)
18.05.2013 13:16 11,7 C 11,2 C 85 % 1009,1 hPa 0,0 l/m 0 min 0 min 0,0 UV-I 165 W/m 7,7 km/h (2 Bft)
18.05.2013 13:18 11,7 C 11,2 C 84 % 1009,1 hPa 0,0 l/m 0 min 0 min 0,5 UV-I 220 W/m 2,6 km/h (1 Bft)
18.05.2013 13:20 11,7 C 11,8 C 84 % 1009,1 hPa 0,0 l/m 0 min 0 min 1,1 UV-I 325 W/m 0,0 km/h (0 Bft)
18.05.2013 13:22 11,7 C 11,8 C 84 % 1009,1 hPa 0,0 l/m 0 min 0 min 1,4 UV-I 332 W/m 0,0 km/h (0 Bft)
18.05.2013 13:24 11,7 C 12,3 C 84 % 1009,1 hPa 0,0 l/m 0 min 0 min 1,5 UV-I 364 W/m 2,6 km/h (1 Bft)
18.05.2013 13:26 11,7 C 12,9 C 84 % 1009,2 hPa 0,0 l/m 0 min 0 min 1,1 UV-I 313 W/m 5,1 km/h (1 Bft)
18.05.2013 13:28 11,8 C 12,9 C 84 % 1009,1 hPa 0,0 l/m 0 min 0 min 0,6 UV-I 207 W/m 5,1 km/h (1 Bft)
18.05.2013 13:30 11,8 C 12,3 C 84 % 1009,1 hPa 0,0 l/m 0 min 0 min 0,0 UV-I 153 W/m 5,1 km/h (1 Bft)
18.05.2013 13:32 11,8 C 11,8 C 84 % 1009,1 hPa 0,0 l/m 0 min 0 min 0,0 UV-I 163 W/m 0,0 km/h (0 Bft)
18.05.2013 13:34 11,8 C 11,8 C 83 % 1009,1 hPa 0,0 l/m 0 min 0 min 0,5 UV-I 204 W/m 12,9 km/h (3 Bft)
18.05.2013 13:36 11,8 C 11,8 C 83 % 1009,1 hPa 0,0 l/m 0 min 0 min 0,6 UV-I 246 W/m 7,7 km/h (2 Bft)
18.05.2013 13:38 11,8 C 11,8 C 82 % 1009,2 hPa 0,0 l/m 0 min 0 min 0,7 UV-I 265 W/m 0,0 km/h (0 Bft)
18.05.2013 13:40 11,8 C 11,8 C 82 % 1009,2 hPa 0,0 l/m 0 min 0 min 0,7 UV-I 250 W/m 7,7 km/h (2 Bft)
18.05.2013 13:42 11,8 C 11,8 C 82 % 1009,2 hPa 0,0 l/m 0 min 0 min 0,7 UV-I 267 W/m 10,3 km/h (2 Bft)
18.05.2013 13:44 11,8 C 11,8 C 82 % 1009,1 hPa 0,0 l/m 0 min 0 min 0,9 UV-I 297 W/m 0,0 km/h (0 Bft)
18.05.2013 13:46 11,9 C 12,3 C 82 % 1009,1 hPa 0,0 l/m 0 min 0 min 1,0 UV-I 323 W/m 7,7 km/h (2 Bft)
18.05.2013 13:48 11,9 C 12,3 C 82 % 1009,1 hPa 0,0 l/m 0 min 0 min 1,2 UV-I 397 W/m 10,3 km/h (2 Bft)
18.05.2013 13:50 11,9 C 12,9 C 81 % 1009,1 hPa 0,0 l/m 0 min 0 min 1,3 UV-I 383 W/m 7,7 km/h (2 Bft)
18.05.2013 13:52 12,0 C 12,9 C 81 % 1009,1 hPa 0,0 l/m 0 min 0 min 0,9 UV-I 295 W/m 2,6 km/h (1 Bft)
18.05.2013 13:54 12,0 C 12,3 C 81 % 1009,0 hPa 0,0 l/m 0 min 0 min 0,8 UV-I 257 W/m 10,3 km/h (2 Bft)
18.05.2013 13:56 12,1 C 12,3 C 81 % 1009,0 hPa 0,0 l/m 0 min 0 min 0,8 UV-I 265 W/m 0,0 km/h (0 Bft)
18.05.2013 13:58 12,1 C 12,3 C 81 % 1009,0 hPa 0,0 l/m 0 min 0 min 0,9 UV-I 292 W/m 0,0 km/h (0 Bft)
18.05.2013 14:00 12,2 C 12,9 C 81 % 1009,0 hPa 0,0 l/m 0 min 0 min 1,0 UV-I 297 W/m 0,0 km/h (0 Bft)
18.05.2013 14:02 12,2 C 12,9 C 82 % 1009,0 hPa 0,0 l/m 0 min 0 min 1,1 UV-I 322 W/m 7,7 km/h (2 Bft)
18.05.2013 14:04 12,3 C 12,9 C 82 % 1009,0 hPa 0,0 l/m 0 min 0 min 1,3 UV-I 366 W/m 5,1 km/h (1 Bft)
18.05.2013 14:06 12,3 C 13,4 C 81 % 1009,0 hPa 0,0 l/m 2 min 0 min 1,8 UV-I 492 W/m 7,7 km/h (2 Bft)
18.05.2013 14:08 12,3 C 13,4 C 80 % 1009,0 hPa 0,0 l/m 2 min 0 min 1,8 UV-I 476 W/m 0,0 km/h (0 Bft)
18.05.2013 14:10 12,4 C 14,0 C 80 % 1008,9 hPa 0,0 l/m 2 min 0 min 2,1 UV-I 534 W/m 5,1 km/h (1 Bft)
18.05.2013 14:12 12,5 C 14,6 C 79 % 1008,9 hPa 0,0 l/m 2 min 0 min 2,4 UV-I 612 W/m 12,9 km/h (3 Bft)
18.05.2013 14:14 12,6 C 14,6 C 80 % 1008,9 hPa 0,0 l/m 2 min 0 min 2,2 UV-I 531 W/m 7,7 km/h (2 Bft)
18.05.2013 14:16 12,8 C 15,1 C 79 % 1008,9 hPa 0,0 l/m 2 min 0 min 2,3 UV-I 573 W/m 0,0 km/h (0 Bft)
18.05.2013 14:18 12,8 C 15,1 C 78 % 1008,9 hPa 0,0 l/m 2 min 0 min 2,4 UV-I 617 W/m 12,9 km/h (3 Bft)
18.05.2013 14:20 12,9 C 15,1 C 78 % 1008,9 hPa 0,0 l/m 2 min 0 min 2,3 UV-I 578 W/m 7,7 km/h (2 Bft)
18.05.2013 14:22 13,1 C 15,1 C 78 % 1008,9 hPa 0,0 l/m 2 min 0 min 2,2 UV-I 559 W/m 5,1 km/h (1 Bft)
18.05.2013 14:24 13,2 C 15,1 C 79 % 1008,9 hPa 0,0 l/m 2 min 0 min 2,4 UV-I 601 W/m 10,3 km/h (2 Bft)
18.05.2013 14:26 13,2 C 15,1 C 78 % 1008,9 hPa 0,0 l/m 2 min 0 min 1,8 UV-I 462 W/m 7,7 km/h (2 Bft)
18.05.2013 14:28 13,1 C 15,1 C 78 % 1009,0 hPa 0,0 l/m 0 min 0 min 1,4 UV-I 373 W/m 0,0 km/h (0 Bft)
18.05.2013 14:30 13,1 C 14,6 C 78 % 1009,0 hPa 0,0 l/m 0 min 0 min 1,2 UV-I 322 W/m 12,9 km/h (3 Bft)
18.05.2013 14:32 12,9 C 14,0 C 78 % 1009,0 hPa 0,0 l/m 0 min 0 min 1,0 UV-I 294 W/m 5,1 km/h (1 Bft)
18.05.2013 14:34 12,7 C 14,0 C 77 % 1009,0 hPa 0,0 l/m 0 min 0 min 0,8 UV-I 237 W/m 5,1 km/h (1 Bft)
18.05.2013 14:36 12,6 C 13,4 C 78 % 1009,0 hPa 0,0 l/m 0 min 0 min 0,6 UV-I 227 W/m 0,0 km/h (0 Bft)
18.05.2013 14:38 12,6 C 13,4 C 80 % 1008,9 hPa 0,0 l/m 0 min 0 min 0,7 UV-I 229 W/m 5,1 km/h (1 Bft)
18.05.2013 14:40 12,5 C 13,4 C 80 % 1008,9 hPa 0,0 l/m 0 min 0 min 0,8 UV-I 244 W/m 0,0 km/h (0 Bft)
18.05.2013 14:42 12,6 C 13,4 C 80 % 1008,8 hPa 0,0 l/m 0 min 0 min 1,0 UV-I 283 W/m 0,0 km/h (0 Bft)
18.05.2013 14:44 12,6 C 13,4 C 79 % 1008,9 hPa 0,0 l/m 0 min 0 min 1,1 UV-I 315 W/m 15,4 km/h (3 Bft)
18.05.2013 14:46 12,5 C 13,4 C 79 % 1008,9 hPa 0,0 l/m 0 min 0 min 1,2 UV-I 315 W/m 0,0 km/h (0 Bft)
18.05.2013 14:48 12,6 C 13,4 C 79 % 1008,9 hPa 0,0 l/m 0 min 0 min 1,2 UV-I 330 W/m 0,0 km/h (0 Bft)
18.05.2013 14:50 12,7 C 14,0 C 80 % 1008,9 hPa 0,0 l/m 0 min 0 min 1,3 UV-I 359 W/m 5,1 km/h (1 Bft)
18.05.2013 14:52 12,7 C 14,0 C 80 % 1008,8 hPa 0,0 l/m 2 min 0 min 1,7 UV-I 475 W/m 5,1 km/h (1 Bft)
18.05.2013 14:54 12,8 C 14,6 C 79 % 1008,8 hPa 0,0 l/m 0 min 0 min 1,7 UV-I 438 W/m 10,3 km/h (2 Bft)
18.05.2013 14:56 12,9 C 14,6 C 78 % 1008,6 hPa 0,0 l/m 0 min 0 min 1,6 UV-I 399 W/m 7,7 km/h (2 Bft)
18.05.2013 14:58 13,1 C 14,6 C 78 % 1008,6 hPa 0,0 l/m 0 min 0 min 1,7 UV-I 413 W/m 0,0 km/h (0 Bft)
18.05.2013 15:00 13,0 C 14,6 C 77 % 1008,6 hPa 0,0 l/m 0 min 0 min 1,6 UV-I 415 W/m 0,0 km/h (0 Bft)
18.05.2013 15:02 13,2 C 15,1 C 77 % 1008,6 hPa 0,0 l/m 0 min 0 min 1,7 UV-I 429 W/m 0,0 km/h (0 Bft)
18.05.2013 15:04 13,2 C 15,1 C 78 % 1008,6 hPa 0,0 l/m 0 min 0 min 1,6 UV-I 418 W/m 0,0 km/h (0 Bft)
18.05.2013 15:06 13,2 C 15,1 C 76 % 1008,6 hPa 0,0 l/m 0 min 0 min 1,4 UV-I 406 W/m 0,0 km/h (0 Bft)
18.05.2013 15:08 13,2 C 15,1 C 76 % 1008,5 hPa 0,0 l/m 0 min 0 min 1,4 UV-I 404 W/m 0,0 km/h (0 Bft)
18.05.2013 15:10 13,2 C 14,6 C 75 % 1008,7 hPa 0,0 l/m 0 min 0 min 1,3 UV-I 381 W/m 7,7 km/h (2 Bft)
18.05.2013 15:12 13,0 C 14,6 C 75 % 1008,7 hPa 0,0 l/m 0 min 0 min 1,2 UV-I 369 W/m 0,0 km/h (0 Bft)
18.05.2013 15:14 13,0 C 14,6 C 77 % 1008,7 hPa 0,0 l/m 0 min 0 min 1,2 UV-I 374 W/m 0,0 km/h (0 Bft)
18.05.2013 15:16 12,9 C 14,6 C 76 % 1008,7 hPa 0,0 l/m 0 min 0 min 1,2 UV-I 371 W/m 0,0 km/h (0 Bft)
18.05.2013 15:18 13,1 C 14,6 C 77 % 1008,7 hPa 0,0 l/m 0 min 0 min 1,3 UV-I 385 W/m 0,0 km/h (0 Bft)
18.05.2013 15:20 13,2 C 15,1 C 76 % 1008,6 hPa 0,0 l/m 2 min 0 min 3,8 UV-I 446 W/m 0,0 km/h (0 Bft)
18.05.2013 15:22 13,4 C 15,1 C 75 % 1008,6 hPa 0,0 l/m 2 min 0 min 3,4 UV-I 958 W/m 0,0 km/h (0 Bft)
18.05.2013 15:24 13,6 C 15,7 C 75 % 1008,6 hPa 0,0 l/m 2 min 0 min 3,7 UV-I 940 W/m 10,3 km/h (2 Bft)
18.05.2013 15:26 13,9 C 15,1 C 75 % 1008,6 hPa 0,0 l/m 2 min 0 min 3,6 UV-I 826 W/m 7,7 km/h (2 Bft)
18.05.2013 15:28 14,2 C 15,7 C 75 % 1008,6 hPa 0,0 l/m 2 min 0 min 3,3 UV-I 847 W/m 5,1 km/h (1 Bft)
18.05.2013 15:30 14,2 C 15,1 C 72 % 1008,7 hPa 0,0 l/m 2 min 0 min 2,5 UV-I 847 W/m 0,0 km/h (0 Bft)
18.05.2013 15:32 14,0 C 14,6 C 72 % 1008,6 hPa 0,0 l/m 0 min 0 min 1,8 UV-I 399 W/m 0,0 km/h (0 Bft)
18.05.2013 15:34 14,0 C 15,1 C 73 % 1008,6 hPa 0,0 l/m 2 min 0 min 1,7 UV-I 497 W/m 5,1 km/h (1 Bft)
18.05.2013 15:36 14,0 C 15,1 C 73 % 1008,5 hPa 0,0 l/m 2 min 0 min 1,5 UV-I 476 W/m 7,7 km/h (2 Bft)
18.05.2013 15:38 14,0 C 15,1 C 75 % 1008,4 hPa 0,0 l/m 0 min 0 min 1,6 UV-I 401 W/m 0,0 km/h (0 Bft)
18.05.2013 15:40 14,0 C 15,1 C 72 % 1008,5 hPa 0,0 l/m 0 min 0 min 1,3 UV-I 369 W/m 10,3 km/h (2 Bft)
18.05.2013 15:42 13,9 C 14,6 C 72 % 1008,5 hPa 0,0 l/m 0 min 0 min 1,1 UV-I 332 W/m 0,0 km/h (0 Bft)
18.05.2013 15:44 13,8 C 14,6 C 76 % 1008,5 hPa 0,0 l/m 0 min 0 min 1,1 UV-I 329 W/m 0,0 km/h (0 Bft)
18.05.2013 15:46 13,8 C 15,1 C 75 % 1008,4 hPa 0,0 l/m 0 min 0 min 0,9 UV-I 304 W/m 0,0 km/h (0 Bft)
18.05.2013 15:48 13,7 C 14,6 C 73 % 1008,5 hPa 0,0 l/m 0 min 0 min 1,0 UV-I 322 W/m 5,1 km/h (1 Bft)
18.05.2013 15:50 13,7 C 14,6 C 76 % 1008,4 hPa 0,0 l/m 0 min 0 min 1,0 UV-I 313 W/m 0,0 km/h (0 Bft)
18.05.2013 15:52 13,7 C 14,6 C 75 % 1008,3 hPa 0,0 l/m 0 min 0 min 0,6 UV-I 223 W/m 0,0 km/h (0 Bft)
18.05.2013 15:54 13,7 C 14,6 C 75 % 1008,4 hPa 0,0 l/m 0 min 0 min 0,0 UV-I 155 W/m 10,3 km/h (2 Bft)
18.05.2013 15:56 13,7 C 14,0 C 76 % 1008,5 hPa 0,0 l/m 0 min 0 min 0,0 UV-I 149 W/m 12,9 km/h (3 Bft)
18.05.2013 15:58 13,6 C 14,0 C 75 % 1008,5 hPa 0,0 l/m 0 min 0 min 0,0 UV-I 156 W/m 0,0 km/h (0 Bft)
18.05.2013 16:00 13,6 C 13,4 C 76 % 1008,5 hPa 0,0 l/m 0 min 0 min 0,0 UV-I 160 W/m 2,6 km/h (1 Bft)
18.05.2013 16:02 13,4 C 13,4 C 74 % 1008,4 hPa 0,0 l/m 0 min 0 min 0,5 UV-I 230 W/m 0,0 km/h (0 Bft)
18.05.2013 16:04 13,3 C 13,4 C 75 % 1008,4 hPa 0,0 l/m 0 min 0 min 0,6 UV-I 255 W/m 0,0 km/h (0 Bft)
18.05.2013 16:06 13,2 C 13,4 C 75 % 1008,4 hPa 0,0 l/m 0 min 0 min 0,7 UV-I 276 W/m 0,0 km/h (0 Bft)
18.05.2013 16:08 13,3 C 14,0 C 77 % 1008,3 hPa 0,0 l/m 0 min 0 min 0,7 UV-I 308 W/m 5,1 km/h (1 Bft)
18.05.2013 16:10 13,3 C 14,0 C 76 % 1008,3 hPa 0,0 l/m 0 min 0 min 0,9 UV-I 338 W/m 2,6 km/h (1 Bft)
18.05.2013 16:12 13,6 C 14,6 C 77 % 1008,3 hPa 0,0 l/m 0 min 0 min 0,9 UV-I 341 W/m 5,1 km/h (1 Bft)
18.05.2013 16:14 13,8 C 14,6 C 76 % 1008,4 hPa 0,0 l/m 0 min 0 min 1,0 UV-I 339 W/m 2,6 km/h (1 Bft)
18.05.2013 16:16 13,8 C 15,1 C 75 % 1008,4 hPa 0,0 l/m 0 min 0 min 0,7 UV-I 297 W/m 0,0 km/h (0 Bft)
18.05.2013 16:18 13,9 C 15,1 C 76 % 1008,5 hPa 0,0 l/m 0 min 0 min 0,6 UV-I 279 W/m 0,0 km/h (0 Bft)
18.05.2013 16:20 13,9 C 15,1 C 76 % 1008,5 hPa 0,0 l/m 0 min 0 min 0,6 UV-I 285 W/m 5,1 km/h (1 Bft)
18.05.2013 16:22 14,0 C 15,1 C 76 % 1008,4 hPa 0,0 l/m 0 min 0 min 0,6 UV-I 281 W/m 2,6 km/h (1 Bft)
18.05.2013 16:24 14,0 C 14,6 C 76 % 1008,5 hPa 0,0 l/m 0 min 0 min 0,0 UV-I 237 W/m 10,3 km/h (2 Bft)
18.05.2013 16:26 13,9 C 14,6 C 75 % 1008,6 hPa 0,0 l/m 0 min 0 min 0,0 UV-I 192 W/m 7,7 km/h (2 Bft)
18.05.2013 16:28 13,8 C 14,6 C 75 % 1008,6 hPa 0,0 l/m 0 min 0 min 0,0 UV-I 185 W/m 0,0 km/h (0 Bft)
18.05.2013 16:30 13,7 C 14,0 C 76 % 1008,8 hPa 0,0 l/m 0 min 0 min 0,0 UV-I 169 W/m 0,0 km/h (0 Bft)
18.05.2013 16:32 13,6 C 14,0 C 76 % 1008,8 hPa 0,0 l/m 0 min 0 min 0,0 UV-I 137 W/m 0,0 km/h (0 Bft)
18.05.2013 16:34 13,6 C 13,4 C 76 % 1008,8 hPa 0,0 l/m 0 min 0 min 0,0 UV-I 123 W/m 0,0 km/h (0 Bft)
18.05.2013 16:36 13,6 C 13,4 C 77 % 1008,8 hPa 0,0 l/m 0 min 0 min 0,0 UV-I 120 W/m 2,6 km/h (1 Bft)
18.05.2013 16:38 13,6 C 13,4 C 77 % 1008,8 hPa 0,0 l/m 0 min 0 min 0,0 UV-I 120 W/m 12,9 km/h (3 Bft)
18.05.2013 16:40 13,5 C 13,4 C 77 % 1008,8 hPa 0,0 l/m 0 min 0 min 0,0 UV-I 118 W/m 10,3 km/h (2 Bft)
18.05.2013 16:42 13,4 C 13,4 C 77 % 1008,8 hPa 0,0 l/m 0 min 0 min 0,0 UV-I 120 W/m 0,0 km/h (0 Bft)
18.05.2013 16:44 13,4 C 13,4 C 78 % 1008,8 hPa 0,0 l/m 0 min 0 min 0,0 UV-I 125 W/m 0,0 km/h (0 Bft)
18.05.2013 16:46 13,4 C 13,4 C 78 % 1008,8 hPa 0,0 l/m 0 min 0 min 0,0 UV-I 128 W/m 0,0 km/h (0 Bft)
18.05.2013 16:48 13,5 C 13,4 C 77 % 1008,8 hPa 0,0 l/m 0 min 0 min 0,0 UV-I 134 W/m 0,0 km/h (0 Bft)
18.05.2013 16:50 13,5 C 13,4 C 77 % 1008,8 hPa 0,0 l/m 0 min 0 min 0,0 UV-I 144 W/m 0,0 km/h (0 Bft)
18.05.2013 16:52 13,5 C 13,4 C 77 % 1008,8 hPa 0,0 l/m 0 min 0 min 0,0 UV-I 142 W/m 0,0 km/h (0 Bft)
18.05.2013 16:54 13,5 C 13,4 C 78 % 1008,8 hPa 0,0 l/m 0 min 0 min 0,0 UV-I 137 W/m 0,0 km/h (0 Bft)
18.05.2013 16:56 13,5 C 13,4 C 77 % 1008,9 hPa 0,0 l/m 0 min 0 min 0,0 UV-I 139 W/m 0,0 km/h (0 Bft)
18.05.2013 16:58 13,5 C 13,4 C 77 % 1008,9 hPa 0,0 l/m 0 min 0 min 0,0 UV-I 146 W/m 0,0 km/h (0 Bft)
18.05.2013 17:00 13,5 C 13,4 C 77 % 1008,8 hPa 0,0 l/m 0 min 0 min 0,0 UV-I 149 W/m 0,0 km/h (0 Bft)
18.05.2013 17:02 13,5 C 13,4 C 78 % 1008,9 hPa 0,0 l/m 0 min 0 min 0,0 UV-I 153 W/m 5,1 km/h (1 Bft)
18.05.2013 17:04 13,6 C 13,4 C 78 % 1008,8 hPa 0,0 l/m 0 min 0 min 0,0 UV-I 160 W/m 7,7 km/h (2 Bft)
18.05.2013 17:06 13,5 C 13,4 C 77 % 1008,8 hPa 0,0 l/m 0 min 0 min 0,0 UV-I 167 W/m 0,0 km/h (0 Bft)
18.05.2013 17:08 13,6 C 13,4 C 78 % 1008,8 hPa 0,0 l/m 0 min 0 min 0,0 UV-I 172 W/m 0,0 km/h (0 Bft)
18.05.2013 17:10 13,6 C 13,4 C 77 % 1008,8 hPa 0,0 l/m 0 min 0 min 0,0 UV-I 181 W/m 0,0 km/h (0 Bft)
18.05.2013 17:12 13,6 C 13,4 C 77 % 1008,8 hPa 0,0 l/m 0 min 0 min 0,0 UV-I 188 W/m 0,0 km/h (0 Bft)
18.05.2013 17:14 13,7 C 14,0 C 78 % 1008,8 hPa 0,0 l/m 0 min 0 min 0,0 UV-I 192 W/m 0,0 km/h (0 Bft)
18.05.2013 17:16 13,8 C 14,0 C 77 % 1008,9 hPa 0,0 l/m 0 min 0 min 0,0 UV-I 186 W/m 0,0 km/h (0 Bft)
18.05.2013 17:18 13,8 C 14,0 C 77 % 1008,9 hPa 0,0 l/m 0 min 0 min 0,0 UV-I 202 W/m 12,9 km/h (3 Bft)
18.05.2013 17:20 13,8 C 14,0 C 77 % 1008,9 hPa 0,0 l/m 0 min 0 min 0,0 UV-I 218 W/m 0,0 km/h (0 Bft)
18.05.2013 17:22 13,8 C 14,0 C 76 % 1008,8 hPa 0,0 l/m 0 min 0 min 0,0 UV-I 248 W/m 0,0 km/h (0 Bft)
18.05.2013 17:24 13,8 C 14,0 C 77 % 1008,8 hPa 0,0 l/m 0 min 0 min 0,7 UV-I 274 W/m 0,0 km/h (0 Bft)
18.05.2013 17:26 13,8 C 14,6 C 75 % 1008,8 hPa 0,0 l/m 0 min 0 min 0,5 UV-I 287 W/m 0,0 km/h (0 Bft)
18.05.2013 17:28 14,0 C 14,6 C 76 % 1008,7 hPa 0,0 l/m 0 min 0 min 0,5 UV-I 297 W/m 0,0 km/h (0 Bft)
18.05.2013 17:30 14,0 C 14,6 C 75 % 1008,8 hPa 0,0 l/m 2 min 0 min 0,8 UV-I 390 W/m 0,0 km/h (0 Bft)
18.05.2013 17:32 14,0 C 15,1 C 76 % 1008,7 hPa 0,0 l/m 2 min 0 min 0,8 UV-I 332 W/m 0,0 km/h (0 Bft)
18.05.2013 17:34 14,3 C 15,1 C 76 % 1008,6 hPa 0,0 l/m 2 min 0 min 1,1 UV-I 580 W/m 0,0 km/h (0 Bft)
18.05.2013 17:36 14,4 C 14,6 C 75 % 1008,5 hPa 0,0 l/m 2 min 0 min 1,1 UV-I 515 W/m 0,0 km/h (0 Bft)
18.05.2013 17:38 14,6 C 14,6 C 75 % 1008,4 hPa 0,0 l/m 2 min 0 min 1,0 UV-I 504 W/m 0,0 km/h (0 Bft)
18.05.2013 17:40 14,3 C 14,0 C 73 % 1008,4 hPa 0,0 l/m 2 min 0 min 1,0 UV-I 497 W/m 0,0 km/h (0 Bft)
18.05.2013 17:42 14,2 C 13,4 C 73 % 1008,4 hPa 0,0 l/m 2 min 0 min 1,0 UV-I 504 W/m 12,9 km/h (3 Bft)
18.05.2013 17:44 14,2 C 13,4 C 73 % 1008,4 hPa 0,0 l/m 2 min 0 min 0,9 UV-I 487 W/m 0,0 km/h (0 Bft)
18.05.2013 17:46 14,3 C 13,4 C 72 % 1008,3 hPa 0,0 l/m 2 min 0 min 0,9 UV-I 506 W/m 0,0 km/h (0 Bft)
18.05.2013 17:48 14,5 C 13,4 C 73 % 1008,3 hPa 0,0 l/m 0 min 0 min 0,0 UV-I 146 W/m 0,0 km/h (0 Bft)
18.05.2013 17:50 14,5 C 13,4 C 72 % 1008,3 hPa 0,0 l/m 0 min 0 min 0,0 UV-I 128 W/m 0,0 km/h (0 Bft)
18.05.2013 17:52 14,4 C 13,4 C 73 % 1008,3 hPa 0,0 l/m 0 min 0 min 0,0 UV-I 132 W/m 2,6 km/h (1 Bft)
18.05.2013 17:54 14,4 C 13,4 C 73 % 1008,3 hPa 0,0 l/m 0 min 0 min 0,0 UV-I 209 W/m 7,7 km/h (2 Bft)
18.05.2013 17:56 14,3 C 13,4 C 73 % 1008,3 hPa 0,0 l/m 0 min 0 min 0,0 UV-I 167 W/m 10,3 km/h (2 Bft)
18.05.2013 17:58 14,2 C 13,4 C 74 % 1008,2 hPa 0,0 l/m 0 min 0 min 0,7 UV-I 244 W/m 0,0 km/h (0 Bft)
18.05.2013 18:00 14,3 C 13,4 C 74 % 1008,3 hPa 0,0 l/m 0 min 0 min 0,0 UV-I 171 W/m 7,7 km/h (2 Bft)
18.05.2013 18:02 14,3 C 13,4 C 76 % 1008,3 hPa 0,0 l/m 0 min 0 min 0,6 UV-I 176 W/m 0,0 km/h (0 Bft)
18.05.2013 18:04 14,3 C 13,4 C 75 % 1008,2 hPa 0,0 l/m 0 min 0 min 0,0 UV-I 176 W/m 7,7 km/h (2 Bft)
18.05.2013 18:06 14,4 C 13,4 C 77 % 1008,2 hPa 0,0 l/m 2 min 0 min 0,7 UV-I 499 W/m 5,1 km/h (1 Bft)
18.05.2013 18:08 14,6 C 14,0 C 76 % 1008,3 hPa 0,0 l/m 2 min 0 min 0,6 UV-I 490 W/m 7,7 km/h (2 Bft)
18.05.2013 18:10 14,7 C 14,0 C 74 % 1008,3 hPa 0,0 l/m 2 min 0 min 0,6 UV-I 469 W/m 12,9 km/h (3 Bft)
18.05.2013 18:12 14,7 C 14,0 C 73 % 1008,3 hPa 0,0 l/m 2 min 0 min 0,5 UV-I 438 W/m 7,7 km/h (2 Bft)
18.05.2013 18:14 14,7 C 14,0 C 73 % 1008,3 hPa 0,0 l/m 2 min 0 min 0,0 UV-I 452 W/m 5,1 km/h (1 Bft)
18.05.2013 18:16 14,7 C 14,0 C 73 % 1008,3 hPa 0,0 l/m 2 min 0 min 0,0 UV-I 380 W/m 7,7 km/h (2 Bft)
18.05.2013 18:18 14,7 C 14,0 C 73 % 1008,3 hPa 0,0 l/m 0 min 0 min 0,0 UV-I 132 W/m 2,6 km/h (1 Bft)
18.05.2013 18:20 14,6 C 14,0 C 74 % 1008,3 hPa 0,0 l/m 0 min 0 min 0,0 UV-I 127 W/m 0,0 km/h (0 Bft)
18.05.2013 18:22 14,4 C 13,4 C 73 % 1008,4 hPa 0,0 l/m 0 min 0 min 0,0 UV-I 100 W/m 0,0 km/h (0 Bft)
18.05.2013 18:24 14,3 C 13,4 C 74 % 1008,3 hPa 0,0 l/m 0 min 0 min 0,0 UV-I 88 W/m 2,6 km/h (1 Bft)
18.05.2013 18:26 14,3 C 13,4 C 75 % 1008,3 hPa 0,0 l/m 0 min 0 min 0,0 UV-I 105 W/m 0,0 km/h (0 Bft)
18.05.2013 18:28 14,2 C 13,4 C 74 % 1008,3 hPa 0,0 l/m 0 min 0 min 0,0 UV-I 105 W/m 0,0 km/h (0 Bft)
18.05.2013 18:30 14,1 C 12,9 C 74 % 1008,3 hPa 0,0 l/m 0 min 0 min 0,0 UV-I 121 W/m 0,0 km/h (0 Bft)
18.05.2013 18:32 14,0 C 12,9 C 74 % 1008,3 hPa 0,0 l/m 0 min 0 min 0,0 UV-I 81 W/m 0,0 km/h (0 Bft)
18.05.2013 18:34 14,0 C 12,9 C 75 % 1008,3 hPa 0,0 l/m 0 min 0 min 0,0 UV-I 176 W/m 7,7 km/h (2 Bft)
18.05.2013 18:36 14,0 C 12,9 C 75 % 1008,3 hPa 0,0 l/m 2 min 0 min 0,0 UV-I 276 W/m 7,7 km/h (2 Bft)
18.05.2013 18:38 14,1 C 12,9 C 74 % 1008,3 hPa 0,0 l/m 0 min 0 min 0,0 UV-I 100 W/m 5,1 km/h (1 Bft)
18.05.2013 18:40 14,1 C 12,9 C 75 % 1008,3 hPa 0,0 l/m 0 min 0 min 0,0 UV-I 95 W/m 5,1 km/h (1 Bft)
18.05.2013 18:42 14,1 C 12,9 C 74 % 1008,3 hPa 0,0 l/m 0 min 0 min 0,0 UV-I 81 W/m 12,9 km/h (3 Bft)
18.05.2013 18:44 14,0 C 12,9 C 73 % 1008,3 hPa 0,0 l/m 0 min 0 min 0,0 UV-I 63 W/m 10,3 km/h (2 Bft)
18.05.2013 18:46 14,0 C 12,9 C 73 % 1008,3 hPa 0,0 l/m 2 min 0 min 0,0 UV-I 216 W/m 2,6 km/h (1 Bft)
18.05.2013 18:48 14,0 C 12,9 C 74 % 1008,3 hPa 0,0 l/m 0 min 0 min 0,0 UV-I 83 W/m 7,7 km/h (2 Bft)
18.05.2013 18:50 14,1 C 12,9 C 75 % 1008,3 hPa 0,0 l/m 0 min 0 min 0,0 UV-I 58 W/m 2,6 km/h (1 Bft)
18.05.2013 18:52 14,2 C 12,9 C 75 % 1008,2 hPa 0,0 l/m 0 min 0 min 0,0 UV-I 53 W/m 2,6 km/h (1 Bft)
18.05.2013 18:54 14,2 C 12,9 C 75 % 1008,3 hPa 0,0 l/m 0 min 0 min 0,0 UV-I 53 W/m 2,6 km/h (1 Bft)
18.05.2013 18:56 14,2 C 12,9 C 74 % 1008,3 hPa 0,0 l/m 0 min 0 min 0,0 UV-I 53 W/m 7,7 km/h (2 Bft)
18.05.2013 18:58 14,2 C 12,9 C 74 % 1008,3 hPa 0,0 l/m 0 min 0 min 0,0 UV-I 53 W/m 5,1 km/h (1 Bft)
18.05.2013 19:00 14,2 C 12,9 C 75 % 1008,3 hPa 0,0 l/m 0 min 0 min 0,0 UV-I 54 W/m 0,0 km/h (0 Bft)
18.05.2013 19:02 14,2 C 12,9 C 75 % 1008,3 hPa 0,0 l/m 0 min 0 min 0,0 UV-I 49 W/m 0,0 km/h (0 Bft)
18.05.2013 19:04 14,2 C 12,9 C 75 % 1008,3 hPa 0,0 l/m 0 min 0 min 0,0 UV-I 47 W/m 5,1 km/h (1 Bft)
18.05.2013 19:06 14,2 C 12,9 C 76 % 1008,2 hPa 0,0 l/m 0 min 0 min 0,0 UV-I 67 W/m 0,0 km/h (0 Bft)
18.05.2013 19:08 14,2 C 12,9 C 75 % 1008,2 hPa 0,0 l/m 0 min 0 min 0,0 UV-I 91 W/m 7,7 km/h (2 Bft)
18.05.2013 19:10 14,2 C 12,9 C 75 % 1008,3 hPa 0,0 l/m 0 min 0 min 0,0 UV-I 54 W/m 5,1 km/h (1 Bft)
18.05.2013 19:12 14,3 C 12,9 C 76 % 1008,3 hPa 0,0 l/m 0 min 0 min 0,0 UV-I 47 W/m 0,0 km/h (0 Bft)
18.05.2013 19:14 14,3 C 12,9 C 75 % 1008,3 hPa 0,0 l/m 0 min 0 min 0,0 UV-I 58 W/m 0,0 km/h (0 Bft)
18.05.2013 19:16 14,3 C 12,9 C 75 % 1008,3 hPa 0,0 l/m 0 min 0 min 0,0 UV-I 46 W/m 0,0 km/h (0 Bft)
18.05.2013 19:18 14,3 C 12,9 C 75 % 1008,3 hPa 0,0 l/m 0 min 0 min 0,0 UV-I 44 W/m 0,0 km/h (0 Bft)
18.05.2013 19:20 14,3 C 12,9 C 75 % 1008,2 hPa 0,0 l/m 0 min 0 min 0,0 UV-I 42 W/m 0,0 km/h (0 Bft)
18.05.2013 19:22 14,3 C 12,3 C 75 % 1008,3 hPa 0,0 l/m 0 min 0 min 0,0 UV-I 42 W/m 0,0 km/h (0 Bft)
18.05.2013 19:24 14,3 C 12,3 C 75 % 1008,3 hPa 0,0 l/m 0 min 0 min 0,0 UV-I 42 W/m 0,0 km/h (0 Bft)
18.05.2013 19:26 14,3 C 12,9 C 75 % 1008,3 hPa 0,0 l/m 0 min 0 min 0,0 UV-I 42 W/m 0,0 km/h (0 Bft)
18.05.2013 19:28 14,4 C 12,9 C 76 % 1008,4 hPa 0,0 l/m 0 min 0 min 0,0 UV-I 42 W/m 0,0 km/h (0 Bft)
18.05.2013 19:30 14,3 C 12,9 C 76 % 1008,3 hPa 0,0 l/m 0 min 0 min 0,0 UV-I 42 W/m 0,0 km/h (0 Bft)
18.05.2013 19:32 14,3 C 12,9 C 75 % 1008,4 hPa 0,0 l/m 0 min 0 min 0,0 UV-I 40 W/m 0,0 km/h (0 Bft)
18.05.2013 19:34 14,3 C 12,9 C 75 % 1008,4 hPa 0,0 l/m 0 min 0 min 0,0 UV-I 40 W/m 0,0 km/h (0 Bft)
18.05.2013 19:36 14,3 C 12,9 C 75 % 1008,4 hPa 0,0 l/m 0 min 0 min 0,0 UV-I 40 W/m 0,0 km/h (0 Bft)
18.05.2013 19:38 14,3 C 12,9 C 75 % 1008,3 hPa 0,0 l/m 0 min 0 min 0,0 UV-I 40 W/m 7,7 km/h (2 Bft)
18.05.2013 19:40 14,3 C 12,9 C 75 % 1008,3 hPa 0,0 l/m 0 min 0 min 0,0 UV-I 40 W/m 2,6 km/h (1 Bft)
18.05.2013 19:42 14,3 C 12,9 C 75 % 1008,3 hPa 0,0 l/m 0 min 0 min 0,0 UV-I 39 W/m 7,7 km/h (2 Bft)
18.05.2013 19:44 14,3 C 12,9 C 75 % 1008,4 hPa 0,0 l/m 0 min 0 min 0,0 UV-I 39 W/m 2,6 km/h (1 Bft)
18.05.2013 19:46 14,3 C 12,3 C 75 % 1008,3 hPa 0,0 l/m 0 min 0 min 0,0 UV-I 39 W/m 2,6 km/h (1 Bft)
18.05.2013 19:48 14,3 C 12,9 C 76 % 1008,3 hPa 0,0 l/m 0 min 0 min 0,0 UV-I 37 W/m 7,7 km/h (2 Bft)
18.05.2013 19:50 14,2 C 12,3 C 76 % 1008,4 hPa 0,0 l/m 0 min 0 min 0,0 UV-I 35 W/m 2,6 km/h (1 Bft)
18.05.2013 19:52 14,2 C 12,3 C 76 % 1008,4 hPa 0,0 l/m 0 min 0 min 0,0 UV-I 35 W/m 0,0 km/h (0 Bft)
18.05.2013 19:54 14,2 C 12,3 C 76 % 1008,4 hPa 0,0 l/m 0 min 0 min 0,0 UV-I 35 W/m 0,0 km/h (0 Bft)
18.05.2013 19:56 14,2 C 12,3 C 75 % 1008,4 hPa 0,0 l/m 0 min 0 min 0,0 UV-I 33 W/m 7,7 km/h (2 Bft)
18.05.2013 19:58 14,2 C 12,3 C 75 % 1008,4 hPa 0,0 l/m 0 min 0 min 0,0 UV-I 33 W/m 5,1 km/h (1 Bft)
18.05.2013 20:00 14,1 C 12,3 C 75 % 1008,4 hPa 0,0 l/m 0 min 0 min 0,0 UV-I 33 W/m 5,1 km/h (1 Bft)
18.05.2013 20:02 14,1 C 12,3 C 75 % 1008,4 hPa 0,0 l/m 0 min 0 min 0,0 UV-I 33 W/m 0,0 km/h (0 Bft)
18.05.2013 20:04 14,1 C 12,3 C 76 % 1008,5 hPa 0,0 l/m 0 min 0 min 0,0 UV-I 32 W/m 0,0 km/h (0 Bft)
18.05.2013 20:06 14,1 C 12,3 C 76 % 1008,5 hPa 0,0 l/m 0 min 0 min 0,0 UV-I 32 W/m 0,0 km/h (0 Bft)
18.05.2013 20:08 14,0 C 11,8 C 76 % 1008,4 hPa 0,0 l/m 0 min 0 min 0,0 UV-I 30 W/m 0,0 km/h (0 Bft)
18.05.2013 20:10 14,0 C 12,3 C 76 % 1008,4 hPa 0,0 l/m 0 min 0 min 0,0 UV-I 30 W/m 0,0 km/h (0 Bft)
18.05.2013 20:12 14,0 C 12,3 C 76 % 1008,4 hPa 0,0 l/m 0 min 0 min 0,0 UV-I 30 W/m 2,6 km/h (1 Bft)
18.05.2013 20:14 14,0 C 12,3 C 76 % 1008,4 hPa 0,0 l/m 0 min 0 min 0,0 UV-I 28 W/m 0,0 km/h (0 Bft)
18.05.2013 20:16 14,0 C 11,8 C 76 % 1008,3 hPa 0,0 l/m 0 min 0 min 0,0 UV-I 28 W/m 7,7 km/h (2 Bft)
18.05.2013 20:18 14,0 C 11,8 C 76 % 1008,4 hPa 0,0 l/m 0 min 0 min 0,0 UV-I 28 W/m 0,0 km/h (0 Bft)
18.05.2013 20:20 14,0 C 11,8 C 76 % 1008,5 hPa 0,0 l/m 0 min 0 min 0,0 UV-I 26 W/m 0,0 km/h (0 Bft)
18.05.2013 20:22 14,0 C 11,8 C 77 % 1008,5 hPa 0,0 l/m 0 min 0 min 0,0 UV-I 26 W/m 0,0 km/h (0 Bft)
18.05.2013 20:24 14,0 C 11,8 C 77 % 1008,5 hPa 0,0 l/m 0 min 0 min 0,0 UV-I 26 W/m 0,0 km/h (0 Bft)
18.05.2013 20:26 14,0 C 11,8 C 77 % 1008,5 hPa 0,0 l/m 0 min 0 min 0,0 UV-I 25 W/m 0,0 km/h (0 Bft)
18.05.2013 20:28 13,9 C 11,8 C 77 % 1008,5 hPa 0,0 l/m 0 min 0 min 0,0 UV-I 25 W/m 0,0 km/h (0 Bft)
18.05.2013 20:30 13,9 C 11,8 C 77 % 1008,4 hPa 0,0 l/m 0 min 0 min 0,0 UV-I 23 W/m 0,0 km/h (0 Bft)
18.05.2013 20:32 13,8 C 11,8 C 77 % 1008,4 hPa 0,0 l/m 0 min 0 min 0,0 UV-I 23 W/m 0,0 km/h (0 Bft)
18.05.2013 20:34 13,8 C 11,2 C 77 % 1008,5 hPa 0,0 l/m 0 min 0 min 0,0 UV-I 23 W/m 0,0 km/h (0 Bft)
18.05.2013 20:36 13,8 C 11,2 C 77 % 1008,5 hPa 0,0 l/m 0 min 0 min 0,0 UV-I 21 W/m 5,1 km/h (1 Bft)
18.05.2013 20:38 13,7 C 11,2 C 77 % 1008,5 hPa 0,0 l/m 0 min 0 min 0,0 UV-I 21 W/m 0,0 km/h (0 Bft)
18.05.2013 20:40 13,7 C 11,2 C 77 % 1008,5 hPa 0,0 l/m 0 min 0 min 0,0 UV-I 21 W/m 0,0 km/h (0 Bft)
18.05.2013 20:42 13,7 C 11,2 C 78 % 1008,5 hPa 0,0 l/m 0 min 0 min 0,0 UV-I 19 W/m 0,0 km/h (0 Bft)
18.05.2013 20:44 13,6 C 10,7 C 78 % 1008,5 hPa 0,0 l/m 0 min 0 min 0,0 UV-I 19 W/m 0,0 km/h (0 Bft)
18.05.2013 20:46 13,6 C 10,7 C 78 % 1008,5 hPa 0,0 l/m 0 min 0 min 0,0 UV-I 18 W/m 0,0 km/h (0 Bft)
18.05.2013 20:48 13,5 C 10,7 C 78 % 1008,5 hPa 0,0 l/m 0 min 0 min 0,0 UV-I 18 W/m 0,0 km/h (0 Bft)
18.05.2013 20:50 13,5 C 10,7 C 80 % 1008,5 hPa 0,0 l/m 0 min 0 min 0,0 UV-I 16 W/m 0,0 km/h (0 Bft)
18.05.2013 20:52 13,4 C 10,7 C 78 % 1008,7 hPa 0,0 l/m 0 min 0 min 0,0 UV-I 16 W/m 0,0 km/h (0 Bft)
18.05.2013 20:54 13,4 C 10,7 C 79 % 1008,6 hPa 0,0 l/m 0 min 0 min 0,0 UV-I 14 W/m 0,0 km/h (0 Bft)
18.05.2013 20:56 13,4 C 10,1 C 78 % 1008,5 hPa 0,0 l/m 0 min 0 min 0,0 UV-I 14 W/m 0,0 km/h (0 Bft)
18.05.2013 20:58 13,3 C 10,7 C 78 % 1008,6 hPa 0,0 l/m 0 min 0 min 0,0 UV-I 14 W/m 0,0 km/h (0 Bft)
18.05.2013 21:00 13,3 C 10,7 C 78 % 1008,6 hPa 0,0 l/m 0 min 0 min 0,0 UV-I 12 W/m 0,0 km/h (0 Bft)
18.05.2013 21:02 13,2 C 10,1 C 78 % 1008,7 hPa 0,0 l/m 0 min 0 min 0,0 UV-I 12 W/m 0,0 km/h (0 Bft)
18.05.2013 21:04 13,2 C 10,1 C 79 % 1008,7 hPa 0,0 l/m 0 min 0 min 0,0 UV-I 11 W/m 0,0 km/h (0 Bft)
18.05.2013 21:06 13,2 C 9,6 C 79 % 1008,7 hPa 0,0 l/m 0 min 0 min 0,0 UV-I 11 W/m 0,0 km/h (0 Bft)
18.05.2013 21:08 13,1 C 9,6 C 79 % 1008,7 hPa 0,0 l/m 0 min 0 min 0,0 UV-I 11 W/m 0,0 km/h (0 Bft)
18.05.2013 21:10 13,1 C 9,6 C 79 % 1008,7 hPa 0,0 l/m 0 min 0 min 0,0 UV-I 9 W/m 5,1 km/h (1 Bft)
18.05.2013 21:12 13,0 C 10,1 C 79 % 1008,7 hPa 0,0 l/m 0 min 0 min 0,0 UV-I 9 W/m 7,7 km/h (2 Bft)
18.05.2013 21:14 12,9 C 10,7 C 79 % 1008,8 hPa 0,0 l/m 0 min 0 min 0,0 UV-I 7 W/m 7,7 km/h (2 Bft)
18.05.2013 21:16 12,9 C 10,7 C 80 % 1008,9 hPa 0,0 l/m 0 min 0 min 0,0 UV-I 7 W/m 7,7 km/h (2 Bft)
18.05.2013 21:18 12,8 C 10,7 C 80 % 1008,8 hPa 0,0 l/m 0 min 0 min 0,0 UV-I 7 W/m 10,3 km/h (2 Bft)
18.05.2013 21:20 12,8 C 10,7 C 81 % 1008,8 hPa 0,0 l/m 0 min 0 min 0,0 UV-I 5 W/m 7,7 km/h (2 Bft)
18.05.2013 21:22 12,7 C 10,7 C 81 % 1008,8 hPa 0,0 l/m 0 min 0 min 0,0 UV-I 5 W/m 5,1 km/h (1 Bft)
18.05.2013 21:24 12,7 C 10,7 C 81 % 1008,7 hPa 0,0 l/m 0 min 0 min 0,0 UV-I 5 W/m 5,1 km/h (1 Bft)
18.05.2013 21:26 12,6 C 10,7 C 82 % 1008,9 hPa 0,0 l/m 0 min 0 min 0,0 UV-I 5 W/m 7,7 km/h (2 Bft)
18.05.2013 21:28 12,6 C 10,7 C 82 % 1008,8 hPa 0,0 l/m 0 min 0 min 0,0 UV-I 0 W/m 7,7 km/h (2 Bft)
18.05.2013 21:30 12,4 C 10,7 C 82 % 1008,9 hPa 0,0 l/m 0 min 0 min 0,0 UV-I 0 W/m 7,7 km/h (2 Bft)
18.05.2013 21:32 12,4 C 10,7 C 82 % 1008,8 hPa 0,0 l/m 0 min 0 min 0,0 UV-I 0 W/m 7,7 km/h (2 Bft)
18.05.2013 21:34 12,3 C 10,7 C 83 % 1008,9 hPa 0,0 l/m 0 min 0 min 0,0 UV-I 0 W/m 7,7 km/h (2 Bft)
18.05.2013 21:36 12,3 C 10,1 C 83 % 1008,9 hPa 0,0 l/m 0 min 0 min 0,0 UV-I 0 W/m 0,0 km/h (0 Bft)
18.05.2013 21:38 12,2 C 10,1 C 83 % 1009,0 hPa 0,0 l/m 0 min 0 min 0,0 UV-I 0 W/m 0,0 km/h (0 Bft)
18.05.2013 21:40 12,2 C 10,1 C 83 % 1009,0 hPa 0,0 l/m 0 min 0 min 0,0 UV-I 0 W/m 0,0 km/h (0 Bft)
18.05.2013 21:42 12,1 C 10,1 C 84 % 1009,0 hPa 0,0 l/m 0 min 0 min 0,0 UV-I 0 W/m 0,0 km/h (0 Bft)
18.05.2013 21:44 12,1 C 10,1 C 84 % 1009,0 hPa 0,0 l/m 0 min 0 min 0,0 UV-I 0 W/m 0,0 km/h (0 Bft)
18.05.2013 21:46 12,0 C 10,1 C 84 % 1009,1 hPa 0,0 l/m 0 min 0 min 0,0 UV-I 0 W/m 0,0 km/h (0 Bft)
18.05.2013 21:48 12,0 C 9,6 C 84 % 1009,1 hPa 0,0 l/m 0 min 0 min 0,0 UV-I 0 W/m 0,0 km/h (0 Bft)
18.05.2013 21:50 11,9 C 9,6 C 84 % 1009,0 hPa 0,0 l/m 0 min 0 min 0,0 UV-I 0 W/m 0,0 km/h (0 Bft)
18.05.2013 21:52 11,8 C 9,6 C 84 % 1009,1 hPa 0,0 l/m 0 min 0 min 0,0 UV-I 0 W/m 0,0 km/h (0 Bft)
18.05.2013 21:54 11,8 C 9,6 C 84 % 1009,2 hPa 0,0 l/m 0 min 0 min 0,0 UV-I 0 W/m 0,0 km/h (0 Bft)
18.05.2013 21:56 11,8 C 9,6 C 84 % 1009,1 hPa 0,0 l/m 0 min 0 min 0,0 UV-I 0 W/m 7,7 km/h (2 Bft)
18.05.2013 21:58 11,7 C 9,6 C 85 % 1009,2 hPa 0,0 l/m 0 min 0 min 0,0 UV-I 0 W/m 0,0 km/h (0 Bft)
18.05.2013 22:00 11,7 C 9,6 C 85 % 1009,2 hPa 0,0 l/m 0 min 0 min 0,0 UV-I 0 W/m 0,0 km/h (0 Bft)
18.05.2013 22:02 11,6 C 9,6 C 85 % 1009,2 hPa 0,0 l/m 0 min 0 min 0,0 UV-I 0 W/m 0,0 km/h (0 Bft)
18.05.2013 22:04 11,6 C 9,6 C 85 % 1009,2 hPa 0,0 l/m 0 min 0 min 0,0 UV-I 0 W/m 0,0 km/h (0 Bft)
18.05.2013 22:06 11,5 C 9,6 C 85 % 1009,2 hPa 0,0 l/m 0 min 0 min 0,0 UV-I 0 W/m 0,0 km/h (0 Bft)
18.05.2013 22:08 11,5 C 9,6 C 85 % 1009,3 hPa 0,0 l/m 0 min 0 min 0,0 UV-I 0 W/m 2,6 km/h (1 Bft)
18.05.2013 22:10 11,4 C 9,6 C 85 % 1009,3 hPa 0,0 l/m 0 min 0 min 0,0 UV-I 0 W/m 0,0 km/h (0 Bft)
18.05.2013 22:12 11,3 C 9,0 C 85 % 1009,3 hPa 0,0 l/m 0 min 0 min 0,0 UV-I 0 W/m 0,0 km/h (0 Bft)
18.05.2013 22:14 11,3 C 9,0 C 86 % 1009,4 hPa 0,0 l/m 0 min 0 min 0,0 UV-I 0 W/m 0,0 km/h (0 Bft)
18.05.2013 22:16 11,3 C 9,0 C 86 % 1009,4 hPa 0,0 l/m 0 min 0 min 0,0 UV-I 0 W/m 2,6 km/h (1 Bft)
18.05.2013 22:18 11,2 C 9,0 C 86 % 1009,4 hPa 0,0 l/m 0 min 0 min 0,0 UV-I 0 W/m 2,6 km/h (1 Bft)
18.05.2013 22:20 11,2 C 9,0 C 86 % 1009,2 hPa 0,0 l/m 0 min 0 min 0,0 UV-I 0 W/m 0,0 km/h (0 Bft)
18.05.2013 22:22 11,1 C 9,0 C 86 % 1009,2 hPa 0,0 l/m 0 min 0 min 0,0 UV-I 0 W/m 0,0 km/h (0 Bft)
18.05.2013 22:24 11,1 C 9,0 C 86 % 1009,3 hPa 0,0 l/m 0 min 0 min 0,0 UV-I 0 W/m 0,0 km/h (0 Bft)
18.05.2013 22:26 11,0 C 9,0 C 87 % 1009,3 hPa 0,0 l/m 0 min 0 min 0,0 UV-I 0 W/m 0,0 km/h (0 Bft)
18.05.2013 22:28 10,9 C 9,0 C 87 % 1009,4 hPa 0,0 l/m 0 min 0 min 0,0 UV-I 0 W/m 0,0 km/h (0 Bft)
18.05.2013 22:30 10,9 C 9,0 C 87 % 1009,4 hPa 0,0 l/m 0 min 0 min 0,0 UV-I 0 W/m 2,6 km/h (1 Bft)
18.05.2013 22:32 10,8 C 9,0 C 87 % 1009,4 hPa 0,0 l/m 0 min 0 min 0,0 UV-I 0 W/m 5,1 km/h (1 Bft)
18.05.2013 22:34 10,8 C 9,0 C 87 % 1009,4 hPa 0,0 l/m 0 min 0 min 0,0 UV-I 0 W/m 5,1 km/h (1 Bft)
18.05.2013 22:36 10,7 C 9,0 C 87 % 1009,4 hPa 0,0 l/m 0 min 0 min 0,0 UV-I 0 W/m 2,6 km/h (1 Bft)
18.05.2013 22:38 10,7 C 9,0 C 88 % 1009,4 hPa 0,0 l/m 0 min 0 min 0,0 UV-I 0 W/m 2,6 km/h (1 Bft)
18.05.2013 22:40 10,6 C 9,0 C 88 % 1009,5 hPa 0,0 l/m 0 min 0 min 0,0 UV-I 0 W/m 2,6 km/h (1 Bft)
18.05.2013 22:42 10,6 C 9,0 C 88 % 1009,5 hPa 0,0 l/m 0 min 0 min 0,0 UV-I 0 W/m 0,0 km/h (0 Bft)
18.05.2013 22:44 10,5 C 9,0 C 88 % 1009,4 hPa 0,0 l/m 0 min 0 min 0,0 UV-I 0 W/m 0,0 km/h (0 Bft)
18.05.2013 22:46 10,5 C 9,0 C 88 % 1009,4 hPa 0,0 l/m 0 min 0 min 0,0 UV-I 0 W/m 0,0 km/h (0 Bft)
18.05.2013 22:48 10,4 C 9,0 C 88 % 1009,4 hPa 0,0 l/m 0 min 0 min 0,0 UV-I 0 W/m 5,1 km/h (1 Bft)
18.05.2013 22:50 10,4 C 9,0 C 89 % 1009,4 hPa 0,0 l/m 0 min 0 min 0,0 UV-I 0 W/m 2,6 km/h (1 Bft)
18.05.2013 22:52 10,3 C 9,0 C 89 % 1009,4 hPa 0,0 l/m 0 min 0 min 0,0 UV-I 0 W/m 0,0 km/h (0 Bft)
18.05.2013 22:54 10,3 C 9,0 C 89 % 1009,2 hPa 0,0 l/m 0 min 0 min 0,0 UV-I 0 W/m 2,6 km/h (1 Bft)
18.05.2013 22:56 10,3 C 9,0 C 89 % 1009,3 hPa 0,0 l/m 0 min 0 min 0,0 UV-I 0 W/m 0,0 km/h (0 Bft)
18.05.2013 22:58 10,2 C 8,4 C 89 % 1009,3 hPa 0,0 l/m 0 min 0 min 0,0 UV-I 0 W/m 0,0 km/h (0 Bft)
18.05.2013 23:00 10,2 C 8,4 C 89 % 1009,3 hPa 0,0 l/m 0 min 0 min 0,0 UV-I 0 W/m 0,0 km/h (0 Bft)
18.05.2013 23:02 10,2 C 8,4 C 89 % 1009,3 hPa 0,0 l/m 0 min 0 min 0,0 UV-I 0 W/m 2,6 km/h (1 Bft)
18.05.2013 23:04 10,2 C 8,4 C 89 % 1009,3 hPa 0,0 l/m 0 min 0 min 0,0 UV-I 0 W/m 5,1 km/h (1 Bft)
18.05.2013 23:06 10,1 C 8,4 C 89 % 1009,2 hPa 0,0 l/m 0 min 0 min 0,0 UV-I 0 W/m 2,6 km/h (1 Bft)
18.05.2013 23:08 10,1 C 8,4 C 90 % 1009,3 hPa 0,0 l/m 0 min 0 min 0,0 UV-I 0 W/m 0,0 km/h (0 Bft)
18.05.2013 23:10 10,1 C 8,4 C 90 % 1009,1 hPa 0,0 l/m 0 min 0 min 0,0 UV-I 0 W/m 2,6 km/h (1 Bft)
18.05.2013 23:12 10,0 C 8,4 C 90 % 1009,2 hPa 0,0 l/m 0 min 0 min 0,0 UV-I 0 W/m 0,0 km/h (0 Bft)
18.05.2013 23:14 10,0 C 8,4 C 90 % 1009,0 hPa 0,0 l/m 0 min 0 min 0,0 UV-I 0 W/m 0,0 km/h (0 Bft)
18.05.2013 23:16 9,9 C 8,4 C 90 % 1009,1 hPa 0,0 l/m 0 min 0 min 0,0 UV-I 0 W/m 0,0 km/h (0 Bft)
18.05.2013 23:18 9,9 C 8,4 C 90 % 1009,0 hPa 0,0 l/m 0 min 0 min 0,0 UV-I 0 W/m 0,0 km/h (0 Bft)
18.05.2013 23:20 9,9 C 8,4 C 90 % 1009,0 hPa 0,0 l/m 0 min 0 min 0,0 UV-I 0 W/m 2,6 km/h (1 Bft)
18.05.2013 23:22 9,8 C 8,4 C 90 % 1009,0 hPa 0,0 l/m 0 min 0 min 0,0 UV-I 0 W/m 0,0 km/h (0 Bft)
18.05.2013 23:24 9,8 C 8,4 C 90 % 1009,0 hPa 0,0 l/m 0 min 0 min 0,0 UV-I 0 W/m 0,0 km/h (0 Bft)
18.05.2013 23:26 9,8 C 7,9 C 91 % 1009,0 hPa 0,0 l/m 0 min 0 min 0,0 UV-I 0 W/m 0,0 km/h (0 Bft)
18.05.2013 23:28 9,8 C 8,4 C 91 % 1009,0 hPa 0,0 l/m 0 min 0 min 0,0 UV-I 0 W/m 0,0 km/h (0 Bft)
18.05.2013 23:30 9,8 C 8,4 C 91 % 1009,1 hPa 0,0 l/m 0 min 0 min 0,0 UV-I 0 W/m 2,6 km/h (1 Bft)
18.05.2013 23:32 9,7 C 8,4 C 91 % 1009,1 hPa 0,0 l/m 0 min 0 min 0,0 UV-I 0 W/m 0,0 km/h (0 Bft)
18.05.2013 23:34 9,7 C 8,4 C 91 % 1009,1 hPa 0,0 l/m 0 min 0 min 0,0 UV-I 0 W/m 0,0 km/h (0 Bft)
18.05.2013 23:36 9,7 C 8,4 C 91 % 1009,0 hPa 0,0 l/m 0 min 0 min 0,0 UV-I 0 W/m 0,0 km/h (0 Bft)
18.05.2013 23:38 9,7 C 8,4 C 91 % 1009,0 hPa 0,0 l/m 0 min 0 min 0,0 UV-I 0 W/m 2,6 km/h (1 Bft)
18.05.2013 23:40 9,7 C 8,4 C 91 % 1008,9 hPa 0,0 l/m 0 min 0 min 0,0 UV-I 0 W/m 0,0 km/h (0 Bft)
18.05.2013 23:42 9,6 C 8,4 C 91 % 1008,9 hPa 0,0 l/m 0 min 0 min 0,0 UV-I 0 W/m 0,0 km/h (0 Bft)
18.05.2013 23:44 9,6 C 7,9 C 92 % 1008,9 hPa 0,0 l/m 0 min 0 min 0,0 UV-I 0 W/m 0,0 km/h (0 Bft)
18.05.2013 23:46 9,6 C 8,4 C 92 % 1008,9 hPa 0,0 l/m 0 min 0 min 0,0 UV-I 0 W/m 0,0 km/h (0 Bft)
18.05.2013 23:48 9,6 C 8,4 C 92 % 1008,9 hPa 0,0 l/m 0 min 0 min 0,0 UV-I 0 W/m 2,6 km/h (1 Bft)
18.05.2013 23:50 9,5 C 8,4 C 92 % 1008,8 hPa 0,0 l/m 0 min 0 min 0,0 UV-I 0 W/m 0,0 km/h (0 Bft)
18.05.2013 23:52 9,5 C 7,9 C 92 % 1008,8 hPa 0,0 l/m 0 min 0 min 0,0 UV-I 0 W/m 2,6 km/h (1 Bft)
18.05.2013 23:54 9,5 C 7,9 C 92 % 1008,8 hPa 0,0 l/m 0 min 0 min 0,0 UV-I 0 W/m 0,0 km/h (0 Bft)
18.05.2013 23:56 9,4 C 7,9 C 92 % 1008,8 hPa 0,0 l/m 0 min 0 min 0,0 UV-I 0 W/m 0,0 km/h (0 Bft)
18.05.2013 23:58 9,4 C 7,9 C 92 % 1008,8 hPa 0,0 l/m 0 min 0 min 0,0 UV-I 0 W/m 0,0 km/h (0 Bft)
_ Min-Zeit 05:08 02:22 15:30 00:08 - - - - - 00:00
Minimum _ 8,3 C 7,3 C 72 % 1005,1 hPa - - - - - 0,0 km/h (0 Bft)
_ Max-Zeit 18:10 15:24 10:02 22:40 00:00 14:06 00:00 15:20 15:22 14:44
Maximum _ 14,7 C 15,7 C 99 % 1009,5 hPa 0,0 l/m 2 min 0 min 3,8 UV-I 958 W/m 15,4 km/h
SW (3 Bft)
Durchschnitt _ 10,8 C 10,1 C 88 % 1007,8 hPa #0,0 l/m #1:14 h #0 min. 1,2 UV-I 161 W/m 2,8 km/h (1 Bft)
© 2013 W. Hausmann